<?xml version="1.0" encoding="utf-8"?>
<gpx xmlns:xsi="http://www.w3.org/2001/XMLSchema-instance" xmlns:xsd="http://www.w3.org/2001/XMLSchema" version="1.1" creator="Shapelink.com" xmlns="http://www.topografix.com/GPX/1/1" xmlns:gpxtpx="http://www.garmin.com/xmlschemas/TrackPointExtension/v1">
  <metadata>
    <name>Längdskidåkning 6.88 km, 2011-02-16</name>
    <desc></desc>
    <author><name>Jojje Borssén</name></author> 
    <time>2011-02-16T19:30:10Z</time>
  </metadata>
  <trk>
    <name>Längdskidåkning 6.88 km, 2011-02-16</name>
    <trkseg>
      <trkpt lat="59.2244028004" lon="18.083774655">
        <ele>25.8</ele>
        <time>2011-02-16T19:30:10Z</time>
      </trkpt>
      <trkpt lat="59.2243457196" lon="18.0838193305">
        <ele>25.8</ele>
        <time>2011-02-16T19:30:13Z</time>
      </trkpt>
      <trkpt lat="59.2242961826" lon="18.083860821">
        <ele>25.8</ele>
        <time>2011-02-16T19:30:15Z</time>
      </trkpt>
      <trkpt lat="59.2242331507" lon="18.0839591406">
        <ele>25.2</ele>
        <time>2011-02-16T19:30:18Z</time>
      </trkpt>
      <trkpt lat="59.2241868826" lon="18.0840359188">
        <ele>24.8</ele>
        <time>2011-02-16T19:30:20Z</time>
      </trkpt>
      <trkpt lat="59.2241695321" lon="18.0840618189">
        <ele>24.6</ele>
        <time>2011-02-16T19:30:21Z</time>
      </trkpt>
      <trkpt lat="59.2241130381" lon="18.0841290418">
        <ele>24.4</ele>
        <time>2011-02-16T19:30:23Z</time>
      </trkpt>
      <trkpt lat="59.224049168" lon="18.0842012937">
        <ele>24</ele>
        <time>2011-02-16T19:30:25Z</time>
      </trkpt>
      <trkpt lat="59.2240073423" lon="18.084247478">
        <ele>23.8</ele>
        <time>2011-02-16T19:30:27Z</time>
      </trkpt>
      <trkpt lat="59.223949172" lon="18.0843202329">
        <ele>23.8</ele>
        <time>2011-02-16T19:30:29Z</time>
      </trkpt>
      <trkpt lat="59.2238944382" lon="18.0843970111">
        <ele>23.6</ele>
        <time>2011-02-16T19:30:31Z</time>
      </trkpt>
      <trkpt lat="59.2238408778" lon="18.0844639825">
        <ele>23.8</ele>
        <time>2011-02-16T19:30:33Z</time>
      </trkpt>
      <trkpt lat="59.2237950288" lon="18.0845390005">
        <ele>24.2</ele>
        <time>2011-02-16T19:30:35Z</time>
      </trkpt>
      <trkpt lat="59.2237533708" lon="18.0846301117">
        <ele>24.4</ele>
        <time>2011-02-16T19:30:38Z</time>
      </trkpt>
      <trkpt lat="59.2237097011" lon="18.0847117514">
        <ele>24.6</ele>
        <time>2011-02-16T19:30:40Z</time>
      </trkpt>
      <trkpt lat="59.2236603317" lon="18.0847867694">
        <ele>24.6</ele>
        <time>2011-02-16T19:30:42Z</time>
      </trkpt>
      <trkpt lat="59.2236211044" lon="18.0848486279">
        <ele>24.6</ele>
        <time>2011-02-16T19:30:44Z</time>
      </trkpt>
      <trkpt lat="59.2235769318" lon="18.0849150125">
        <ele>24.8</ele>
        <time>2011-02-16T19:30:46Z</time>
      </trkpt>
      <trkpt lat="59.2235146543" lon="18.0850082192">
        <ele>24.8</ele>
        <time>2011-02-16T19:30:49Z</time>
      </trkpt>
      <trkpt lat="59.2234831383" lon="18.0850947205">
        <ele>24.8</ele>
        <time>2011-02-16T19:30:51Z</time>
      </trkpt>
      <trkpt lat="59.2234667936" lon="18.0851153399">
        <ele>25</ele>
        <time>2011-02-16T19:30:52Z</time>
      </trkpt>
      <trkpt lat="59.2234268958" lon="18.0851660504">
        <ele>25</ele>
        <time>2011-02-16T19:30:54Z</time>
      </trkpt>
      <trkpt lat="59.2233579965" lon="18.085231094">
        <ele>25</ele>
        <time>2011-02-16T19:30:57Z</time>
      </trkpt>
      <trkpt lat="59.2233072861" lon="18.0853035974">
        <ele>25</ele>
        <time>2011-02-16T19:30:59Z</time>
      </trkpt>
      <trkpt lat="59.2232745128" lon="18.085352883">
        <ele>25</ele>
        <time>2011-02-16T19:31:00Z</time>
      </trkpt>
      <trkpt lat="59.2231916997" lon="18.0854648652">
        <ele>25</ele>
        <time>2011-02-16T19:31:03Z</time>
      </trkpt>
      <trkpt lat="59.2231257341" lon="18.0855388773">
        <ele>25</ele>
        <time>2011-02-16T19:31:05Z</time>
      </trkpt>
      <trkpt lat="59.2230668093" lon="18.0855996461">
        <ele>25</ele>
        <time>2011-02-16T19:31:07Z</time>
      </trkpt>
      <trkpt lat="59.2230097286" lon="18.085647842">
        <ele>25</ele>
        <time>2011-02-16T19:31:09Z</time>
      </trkpt>
      <trkpt lat="59.2229445174" lon="18.0856777654">
        <ele>25</ele>
        <time>2011-02-16T19:31:11Z</time>
      </trkpt>
      <trkpt lat="59.2228757858" lon="18.0856924337">
        <ele>25</ele>
        <time>2011-02-16T19:31:13Z</time>
      </trkpt>
      <trkpt lat="59.2227867701" lon="18.0856587385">
        <ele>25</ele>
        <time>2011-02-16T19:31:15Z</time>
      </trkpt>
      <trkpt lat="59.2227108301" lon="18.0855772664">
        <ele>25</ele>
        <time>2011-02-16T19:31:17Z</time>
      </trkpt>
      <trkpt lat="59.2226690044" lon="18.0854461735">
        <ele>25</ele>
        <time>2011-02-16T19:31:19Z</time>
      </trkpt>
      <trkpt lat="59.2226661545" lon="18.0853735024">
        <ele>25</ele>
        <time>2011-02-16T19:31:20Z</time>
      </trkpt>
      <trkpt lat="59.2226559286" lon="18.0852372128">
        <ele>25</ele>
        <time>2011-02-16T19:31:22Z</time>
      </trkpt>
      <trkpt lat="59.2226783083" lon="18.0851209558">
        <ele>25</ele>
        <time>2011-02-16T19:31:24Z</time>
      </trkpt>
      <trkpt lat="59.2227023643" lon="18.0850357119">
        <ele>25</ele>
        <time>2011-02-16T19:31:25Z</time>
      </trkpt>
      <trkpt lat="59.2227513146" lon="18.0848492984">
        <ele>25</ele>
        <time>2011-02-16T19:31:28Z</time>
      </trkpt>
      <trkpt lat="59.2227837526" lon="18.0847115">
        <ele>25</ele>
        <time>2011-02-16T19:31:30Z</time>
      </trkpt>
      <trkpt lat="59.2227993429" lon="18.0846421817">
        <ele>25</ele>
        <time>2011-02-16T19:31:31Z</time>
      </trkpt>
      <trkpt lat="59.2228202138" lon="18.0844701851">
        <ele>25</ele>
        <time>2011-02-16T19:31:33Z</time>
      </trkpt>
      <trkpt lat="59.2228239857" lon="18.0843094202">
        <ele>25</ele>
        <time>2011-02-16T19:31:35Z</time>
      </trkpt>
      <trkpt lat="59.2227886979" lon="18.0840966876">
        <ele>25</ele>
        <time>2011-02-16T19:31:38Z</time>
      </trkpt>
      <trkpt lat="59.222746956" lon="18.0839766588">
        <ele>25</ele>
        <time>2011-02-16T19:31:40Z</time>
      </trkpt>
      <trkpt lat="59.2226897915" lon="18.0838766627">
        <ele>25</ele>
        <time>2011-02-16T19:31:42Z</time>
      </trkpt>
      <trkpt lat="59.2226296933" lon="18.0837925923">
        <ele>25</ele>
        <time>2011-02-16T19:31:44Z</time>
      </trkpt>
      <trkpt lat="59.2225757138" lon="18.083720005">
        <ele>25</ele>
        <time>2011-02-16T19:31:46Z</time>
      </trkpt>
      <trkpt lat="59.2225213153" lon="18.0836387844">
        <ele>25</ele>
        <time>2011-02-16T19:31:48Z</time>
      </trkpt>
      <trkpt lat="59.2224768912" lon="18.0835307417">
        <ele>24.8</ele>
        <time>2011-02-16T19:31:50Z</time>
      </trkpt>
      <trkpt lat="59.2224465487" lon="18.0833869083">
        <ele>24.4</ele>
        <time>2011-02-16T19:31:52Z</time>
      </trkpt>
      <trkpt lat="59.222430204" lon="18.0832428235">
        <ele>24.2</ele>
        <time>2011-02-16T19:31:54Z</time>
      </trkpt>
      <trkpt lat="59.2224133564" lon="18.0831113115">
        <ele>24</ele>
        <time>2011-02-16T19:31:56Z</time>
      </trkpt>
      <trkpt lat="59.2223786554" lon="18.0830177695">
        <ele>23.8</ele>
        <time>2011-02-16T19:31:58Z</time>
      </trkpt>
      <trkpt lat="59.2223313814" lon="18.0829361297">
        <ele>23.6</ele>
        <time>2011-02-16T19:32:00Z</time>
      </trkpt>
      <trkpt lat="59.2222829341" lon="18.0828732655">
        <ele>23.4</ele>
        <time>2011-02-16T19:32:02Z</time>
      </trkpt>
      <trkpt lat="59.222225518" lon="18.0828425039">
        <ele>23.4</ele>
        <time>2011-02-16T19:32:04Z</time>
      </trkpt>
      <trkpt lat="59.2222006238" lon="18.0828223035">
        <ele>23.4</ele>
        <time>2011-02-16T19:32:05Z</time>
      </trkpt>
      <trkpt lat="59.2221141226" lon="18.082839235">
        <ele>23.2</ele>
        <time>2011-02-16T19:32:08Z</time>
      </trkpt>
      <trkpt lat="59.2220557846" lon="18.0828729302">
        <ele>23.2</ele>
        <time>2011-02-16T19:32:10Z</time>
      </trkpt>
      <trkpt lat="59.2219831135" lon="18.0828989141">
        <ele>23.2</ele>
        <time>2011-02-16T19:32:12Z</time>
      </trkpt>
      <trkpt lat="59.2219126217" lon="18.0829227187">
        <ele>23</ele>
        <time>2011-02-16T19:32:14Z</time>
      </trkpt>
      <trkpt lat="59.2218783397" lon="18.0829438411">
        <ele>22.8</ele>
        <time>2011-02-16T19:32:15Z</time>
      </trkpt>
      <trkpt lat="59.2217963648" lon="18.0829688192">
        <ele>22.6</ele>
        <time>2011-02-16T19:32:17Z</time>
      </trkpt>
      <trkpt lat="59.2217431397" lon="18.0829852477">
        <ele>22.2</ele>
        <time>2011-02-16T19:32:19Z</time>
      </trkpt>
      <trkpt lat="59.2216990509" lon="18.0829890195">
        <ele>21.8</ele>
        <time>2011-02-16T19:32:22Z</time>
      </trkpt>
      <trkpt lat="59.2216381983" lon="18.0829746865">
        <ele>21.6</ele>
        <time>2011-02-16T19:32:25Z</time>
      </trkpt>
      <trkpt lat="59.2215697182" lon="18.0829706632">
        <ele>21.4</ele>
        <time>2011-02-16T19:32:27Z</time>
      </trkpt>
      <trkpt lat="59.2215022439" lon="18.0829717528">
        <ele>21.4</ele>
        <time>2011-02-16T19:32:29Z</time>
      </trkpt>
      <trkpt lat="59.2214612564" lon="18.0829927914">
        <ele>21.4</ele>
        <time>2011-02-16T19:32:30Z</time>
      </trkpt>
      <trkpt lat="59.2214022478" lon="18.0829880137">
        <ele>21.2</ele>
        <time>2011-02-16T19:32:32Z</time>
      </trkpt>
      <trkpt lat="59.2213726597" lon="18.0829852477">
        <ele>21.2</ele>
        <time>2011-02-16T19:32:33Z</time>
      </trkpt>
      <trkpt lat="59.2212744238" lon="18.0829813082">
        <ele>21.2</ele>
        <time>2011-02-16T19:32:36Z</time>
      </trkpt>
      <trkpt lat="59.2212023395" lon="18.082993881">
        <ele>21</ele>
        <time>2011-02-16T19:32:38Z</time>
      </trkpt>
      <trkpt lat="59.2211372121" lon="18.0830033526">
        <ele>21</ele>
        <time>2011-02-16T19:32:40Z</time>
      </trkpt>
      <trkpt lat="59.2210723362" lon="18.0830025982">
        <ele>21</ele>
        <time>2011-02-16T19:32:42Z</time>
      </trkpt>
      <trkpt lat="59.2210126571" lon="18.0830020115">
        <ele>21</ele>
        <time>2011-02-16T19:32:44Z</time>
      </trkpt>
      <trkpt lat="59.22097058" lon="18.0829842419">
        <ele>21</ele>
        <time>2011-02-16T19:32:46Z</time>
      </trkpt>
      <trkpt lat="59.2209140021" lon="18.082973513">
        <ele>21</ele>
        <time>2011-02-16T19:32:50Z</time>
      </trkpt>
      <trkpt lat="59.2208823186" lon="18.0829668913">
        <ele>21</ele>
        <time>2011-02-16T19:32:52Z</time>
      </trkpt>
      <trkpt lat="59.2208136708" lon="18.0829625327">
        <ele>21</ele>
        <time>2011-02-16T19:32:56Z</time>
      </trkpt>
      <trkpt lat="59.2207827416" lon="18.0829562463">
        <ele>21</ele>
        <time>2011-02-16T19:32:58Z</time>
      </trkpt>
      <trkpt lat="59.2207022754" lon="18.0829673104">
        <ele>21</ele>
        <time>2011-02-16T19:33:02Z</time>
      </trkpt>
      <trkpt lat="59.220658438" lon="18.0829759438">
        <ele>21</ele>
        <time>2011-02-16T19:33:04Z</time>
      </trkpt>
      <trkpt lat="59.220605632" lon="18.0830051128">
        <ele>21</ele>
        <time>2011-02-16T19:33:06Z</time>
      </trkpt>
      <trkpt lat="59.2205441089" lon="18.0830396462">
        <ele>21</ele>
        <time>2011-02-16T19:33:08Z</time>
      </trkpt>
      <trkpt lat="59.2204802388" lon="18.0830727547">
        <ele>21</ele>
        <time>2011-02-16T19:33:10Z</time>
      </trkpt>
      <trkpt lat="59.2204067296" lon="18.0831424083">
        <ele>21</ele>
        <time>2011-02-16T19:33:12Z</time>
      </trkpt>
      <trkpt lat="59.2203433624" lon="18.0832320108">
        <ele>21</ele>
        <time>2011-02-16T19:33:14Z</time>
      </trkpt>
      <trkpt lat="59.2202898021" lon="18.0833392991">
        <ele>21</ele>
        <time>2011-02-16T19:33:16Z</time>
      </trkpt>
      <trkpt lat="59.2202502395" lon="18.0834789416">
        <ele>21</ele>
        <time>2011-02-16T19:33:18Z</time>
      </trkpt>
      <trkpt lat="59.2202245071" lon="18.0835943604">
        <ele>21</ele>
        <time>2011-02-16T19:33:20Z</time>
      </trkpt>
      <trkpt lat="59.2202082462" lon="18.0836463281">
        <ele>21</ele>
        <time>2011-02-16T19:33:21Z</time>
      </trkpt>
      <trkpt lat="59.2202014568" lon="18.0837918379">
        <ele>21.4</ele>
        <time>2011-02-16T19:33:24Z</time>
      </trkpt>
      <trkpt lat="59.2202035523" lon="18.0839127049">
        <ele>21.8</ele>
        <time>2011-02-16T19:33:27Z</time>
      </trkpt>
      <trkpt lat="59.2202132753" lon="18.0839885611">
        <ele>22</ele>
        <time>2011-02-16T19:33:29Z</time>
      </trkpt>
      <trkpt lat="59.2202299553" lon="18.0840971905">
        <ele>22.2</ele>
        <time>2011-02-16T19:33:31Z</time>
      </trkpt>
      <trkpt lat="59.2202539275" lon="18.0842059038">
        <ele>22.4</ele>
        <time>2011-02-16T19:33:34Z</time>
      </trkpt>
      <trkpt lat="59.2202913946" lon="18.0842939137">
        <ele>22.6</ele>
        <time>2011-02-16T19:33:37Z</time>
      </trkpt>
      <trkpt lat="59.2203262633" lon="18.0843520841">
        <ele>23</ele>
        <time>2011-02-16T19:33:40Z</time>
      </trkpt>
      <trkpt lat="59.2203751298" lon="18.0843862823">
        <ele>23.4</ele>
        <time>2011-02-16T19:33:42Z</time>
      </trkpt>
      <trkpt lat="59.220441263" lon="18.0843991066">
        <ele>23.8</ele>
        <time>2011-02-16T19:33:45Z</time>
      </trkpt>
      <trkpt lat="59.2205146884" lon="18.084391479">
        <ele>24.2</ele>
        <time>2011-02-16T19:33:48Z</time>
      </trkpt>
      <trkpt lat="59.2205665724" lon="18.0843824266">
        <ele>24.4</ele>
        <time>2011-02-16T19:33:50Z</time>
      </trkpt>
      <trkpt lat="59.2206227311" lon="18.0843680097">
        <ele>24.4</ele>
        <time>2011-02-16T19:33:52Z</time>
      </trkpt>
      <trkpt lat="59.2206499723" lon="18.0843484799">
        <ele>24.6</ele>
        <time>2011-02-16T19:33:53Z</time>
      </trkpt>
      <trkpt lat="59.2207016886" lon="18.0843337278">
        <ele>24.6</ele>
        <time>2011-02-16T19:33:55Z</time>
      </trkpt>
      <trkpt lat="59.2207638823" lon="18.0843068219">
        <ele>24.8</ele>
        <time>2011-02-16T19:33:57Z</time>
      </trkpt>
      <trkpt lat="59.2208194543" lon="18.0842733781">
        <ele>24.8</ele>
        <time>2011-02-16T19:33:59Z</time>
      </trkpt>
      <trkpt lat="59.2208740205" lon="18.0842263556">
        <ele>24.8</ele>
        <time>2011-02-16T19:34:01Z</time>
      </trkpt>
      <trkpt lat="59.2209248986" lon="18.0841714542">
        <ele>25</ele>
        <time>2011-02-16T19:34:03Z</time>
      </trkpt>
      <trkpt lat="59.2209679816" lon="18.0841190673">
        <ele>25</ele>
        <time>2011-02-16T19:34:05Z</time>
      </trkpt>
      <trkpt lat="59.2210198655" lon="18.0840601425">
        <ele>25</ele>
        <time>2011-02-16T19:34:07Z</time>
      </trkpt>
      <trkpt lat="59.2210782036" lon="18.0839912433">
        <ele>25</ele>
        <time>2011-02-16T19:34:09Z</time>
      </trkpt>
      <trkpt lat="59.2211354519" lon="18.0839218412">
        <ele>25</ele>
        <time>2011-02-16T19:34:11Z</time>
      </trkpt>
      <trkpt lat="59.2211901858" lon="18.0838692867">
        <ele>25</ele>
        <time>2011-02-16T19:34:13Z</time>
      </trkpt>
      <trkpt lat="59.2212522956" lon="18.0838014771">
        <ele>25</ele>
        <time>2011-02-16T19:34:15Z</time>
      </trkpt>
      <trkpt lat="59.2213050178" lon="18.0837205918">
        <ele>25</ele>
        <time>2011-02-16T19:34:17Z</time>
      </trkpt>
      <trkpt lat="59.2213672953" lon="18.0836463281">
        <ele>25</ele>
        <time>2011-02-16T19:34:19Z</time>
      </trkpt>
      <trkpt lat="59.2214449117" lon="18.0835686279">
        <ele>25</ele>
        <time>2011-02-16T19:34:21Z</time>
      </trkpt>
      <trkpt lat="59.2215294012" lon="18.0835085297">
        <ele>25</ele>
        <time>2011-02-16T19:34:23Z</time>
      </trkpt>
      <trkpt lat="59.2215710593" lon="18.0834825458">
        <ele>25</ele>
        <time>2011-02-16T19:34:24Z</time>
      </trkpt>
      <trkpt lat="59.221671223" lon="18.0834364454">
        <ele>25</ele>
        <time>2011-02-16T19:34:26Z</time>
      </trkpt>
      <trkpt lat="59.2218293894" lon="18.0834143171">
        <ele>25</ele>
        <time>2011-02-16T19:34:29Z</time>
      </trkpt>
      <trkpt lat="59.2219311457" lon="18.0834164964">
        <ele>25.2</ele>
        <time>2011-02-16T19:34:31Z</time>
      </trkpt>
      <trkpt lat="59.2219788387" lon="18.0834254651">
        <ele>25.2</ele>
        <time>2011-02-16T19:34:32Z</time>
      </trkpt>
      <trkpt lat="59.2220488276" lon="18.0834185919">
        <ele>25.2</ele>
        <time>2011-02-16T19:34:34Z</time>
      </trkpt>
      <trkpt lat="59.2221411961" lon="18.0834038398">
        <ele>25.2</ele>
        <time>2011-02-16T19:34:36Z</time>
      </trkpt>
      <trkpt lat="59.2222330618" lon="18.0834245431">
        <ele>25.2</ele>
        <time>2011-02-16T19:34:38Z</time>
      </trkpt>
      <trkpt lat="59.2222740492" lon="18.0834333441">
        <ele>25.2</ele>
        <time>2011-02-16T19:34:39Z</time>
      </trkpt>
      <trkpt lat="59.2223128574" lon="18.0834353557">
        <ele>25.2</ele>
        <time>2011-02-16T19:34:40Z</time>
      </trkpt>
      <trkpt lat="59.2223845227" lon="18.0834878264">
        <ele>25.2</ele>
        <time>2011-02-16T19:34:42Z</time>
      </trkpt>
      <trkpt lat="59.2224392565" lon="18.0835516127">
        <ele>25.2</ele>
        <time>2011-02-16T19:34:44Z</time>
      </trkpt>
      <trkpt lat="59.2224737899" lon="18.0835938574">
        <ele>25.2</ele>
        <time>2011-02-16T19:34:45Z</time>
      </trkpt>
      <trkpt lat="59.2225292781" lon="18.0836636787">
        <ele>25.2</ele>
        <time>2011-02-16T19:34:47Z</time>
      </trkpt>
      <trkpt lat="59.2225512387" lon="18.0837108688">
        <ele>25.2</ele>
        <time>2011-02-16T19:34:48Z</time>
      </trkpt>
      <trkpt lat="59.2226076489" lon="18.0837985434">
        <ele>25.2</ele>
        <time>2011-02-16T19:34:50Z</time>
      </trkpt>
      <trkpt lat="59.2226328784" lon="18.0838354238">
        <ele>25.2</ele>
        <time>2011-02-16T19:34:51Z</time>
      </trkpt>
      <trkpt lat="59.2227167812" lon="18.0839822747">
        <ele>25.2</ele>
        <time>2011-02-16T19:34:54Z</time>
      </trkpt>
      <trkpt lat="59.2227410887" lon="18.084040948">
        <ele>25.2</ele>
        <time>2011-02-16T19:34:55Z</time>
      </trkpt>
      <trkpt lat="59.2227600318" lon="18.0840940892">
        <ele>25.2</ele>
        <time>2011-02-16T19:34:56Z</time>
      </trkpt>
      <trkpt lat="59.2227706768" lon="18.0841564506">
        <ele>25.2</ele>
        <time>2011-02-16T19:34:57Z</time>
      </trkpt>
      <trkpt lat="59.222790039" lon="18.0842695224">
        <ele>25.2</ele>
        <time>2011-02-16T19:34:59Z</time>
      </trkpt>
      <trkpt lat="59.2227957387" lon="18.0843810017">
        <ele>25.2</ele>
        <time>2011-02-16T19:35:01Z</time>
      </trkpt>
      <trkpt lat="59.2227983371" lon="18.0844597077">
        <ele>25.2</ele>
        <time>2011-02-16T19:35:03Z</time>
      </trkpt>
      <trkpt lat="59.2227980018" lon="18.0845433591">
        <ele>25.2</ele>
        <time>2011-02-16T19:35:05Z</time>
      </trkpt>
      <trkpt lat="59.2227560923" lon="18.0847113323">
        <ele>25.2</ele>
        <time>2011-02-16T19:35:09Z</time>
      </trkpt>
      <trkpt lat="59.2227425975" lon="18.0847428483">
        <ele>25.2</ele>
        <time>2011-02-16T19:35:10Z</time>
      </trkpt>
      <trkpt lat="59.2227178708" lon="18.0848211352">
        <ele>25.2</ele>
        <time>2011-02-16T19:35:12Z</time>
      </trkpt>
      <trkpt lat="59.2227093213" lon="18.0848582671">
        <ele>25.2</ele>
        <time>2011-02-16T19:35:13Z</time>
      </trkpt>
      <trkpt lat="59.2226709322" lon="18.0849760327">
        <ele>25.2</ele>
        <time>2011-02-16T19:35:16Z</time>
      </trkpt>
      <trkpt lat="59.222657605" lon="18.085020373">
        <ele>25.2</ele>
        <time>2011-02-16T19:35:17Z</time>
      </trkpt>
      <trkpt lat="59.2226227363" lon="18.0851714148">
        <ele>25.2</ele>
        <time>2011-02-16T19:35:20Z</time>
      </trkpt>
      <trkpt lat="59.2226079841" lon="18.0852217901">
        <ele>25.2</ele>
        <time>2011-02-16T19:35:21Z</time>
      </trkpt>
      <trkpt lat="59.22258024" lon="18.0853558166">
        <ele>25.2</ele>
        <time>2011-02-16T19:35:24Z</time>
      </trkpt>
      <trkpt lat="59.2225662423" lon="18.0854553936">
        <ele>25.2</ele>
        <time>2011-02-16T19:35:26Z</time>
      </trkpt>
      <trkpt lat="59.2225306192" lon="18.0856045914">
        <ele>25.4</ele>
        <time>2011-02-16T19:35:29Z</time>
      </trkpt>
      <trkpt lat="59.2225220697" lon="18.0856620074">
        <ele>25.4</ele>
        <time>2011-02-16T19:35:30Z</time>
      </trkpt>
      <trkpt lat="59.2225027913" lon="18.0857777615">
        <ele>25.8</ele>
        <time>2011-02-16T19:35:32Z</time>
      </trkpt>
      <trkpt lat="59.2224925654" lon="18.0859014783">
        <ele>26</ele>
        <time>2011-02-16T19:35:34Z</time>
      </trkpt>
      <trkpt lat="59.2224821718" lon="18.0859775022">
        <ele>26.2</ele>
        <time>2011-02-16T19:35:35Z</time>
      </trkpt>
      <trkpt lat="59.2224741252" lon="18.0861044879">
        <ele>26.4</ele>
        <time>2011-02-16T19:35:37Z</time>
      </trkpt>
      <trkpt lat="59.2224624744" lon="18.0862307194">
        <ele>26.4</ele>
        <time>2011-02-16T19:35:39Z</time>
      </trkpt>
      <trkpt lat="59.2224551821" lon="18.0863520893">
        <ele>26.6</ele>
        <time>2011-02-16T19:35:41Z</time>
      </trkpt>
      <trkpt lat="59.22244504" lon="18.0864611378">
        <ele>26.8</ele>
        <time>2011-02-16T19:35:43Z</time>
      </trkpt>
      <trkpt lat="59.2224189723" lon="18.0865590384">
        <ele>26.8</ele>
        <time>2011-02-16T19:35:45Z</time>
      </trkpt>
      <trkpt lat="59.2223825948" lon="18.0866391693">
        <ele>26.8</ele>
        <time>2011-02-16T19:35:47Z</time>
      </trkpt>
      <trkpt lat="59.2223359077" lon="18.0867116728">
        <ele>27</ele>
        <time>2011-02-16T19:35:49Z</time>
      </trkpt>
      <trkpt lat="59.2222761447" lon="18.0867520735">
        <ele>27</ele>
        <time>2011-02-16T19:35:51Z</time>
      </trkpt>
      <trkpt lat="59.2222535974" lon="18.0867427696">
        <ele>27</ele>
        <time>2011-02-16T19:35:52Z</time>
      </trkpt>
      <trkpt lat="59.2222012105" lon="18.0867203061">
        <ele>27</ele>
        <time>2011-02-16T19:35:54Z</time>
      </trkpt>
      <trkpt lat="59.2221316408" lon="18.0866627225">
        <ele>27</ele>
        <time>2011-02-16T19:35:57Z</time>
      </trkpt>
      <trkpt lat="59.2221142064" lon="18.0866310389">
        <ele>27</ele>
        <time>2011-02-16T19:35:58Z</time>
      </trkpt>
      <trkpt lat="59.2220675192" lon="18.0865935718">
        <ele>27</ele>
        <time>2011-02-16T19:36:00Z</time>
      </trkpt>
      <trkpt lat="59.2219805151" lon="18.0864228325">
        <ele>27</ele>
        <time>2011-02-16T19:36:03Z</time>
      </trkpt>
      <trkpt lat="59.2219178185" lon="18.0862919072">
        <ele>27</ele>
        <time>2011-02-16T19:36:05Z</time>
      </trkpt>
      <trkpt lat="59.2218644258" lon="18.0861764046">
        <ele>27</ele>
        <time>2011-02-16T19:36:07Z</time>
      </trkpt>
      <trkpt lat="59.2218131286" lon="18.0860644225">
        <ele>27.2</ele>
        <time>2011-02-16T19:36:09Z</time>
      </trkpt>
      <trkpt lat="59.2217640106" lon="18.0859485008">
        <ele>27.2</ele>
        <time>2011-02-16T19:36:11Z</time>
      </trkpt>
      <trkpt lat="59.2217248672" lon="18.0858309027">
        <ele>27.2</ele>
        <time>2011-02-16T19:36:13Z</time>
      </trkpt>
      <trkpt lat="59.2216912557" lon="18.0857239497">
        <ele>27.2</ele>
        <time>2011-02-16T19:36:15Z</time>
      </trkpt>
      <trkpt lat="59.2216669482" lon="18.0856241213">
        <ele>27.2</ele>
        <time>2011-02-16T19:36:17Z</time>
      </trkpt>
      <trkpt lat="59.221633253" lon="18.08551172">
        <ele>27.2</ele>
        <time>2011-02-16T19:36:19Z</time>
      </trkpt>
      <trkpt lat="59.221608694" lon="18.085420022">
        <ele>27.2</ele>
        <time>2011-02-16T19:36:21Z</time>
      </trkpt>
      <trkpt lat="59.2215857276" lon="18.0853483567">
        <ele>27.2</ele>
        <time>2011-02-16T19:36:23Z</time>
      </trkpt>
      <trkpt lat="59.2215848056" lon="18.0853354486">
        <ele>27.2</ele>
        <time>2011-02-16T19:36:24Z</time>
      </trkpt>
      <trkpt lat="59.221567036" lon="18.0852748475">
        <ele>27.2</ele>
        <time>2011-02-16T19:36:27Z</time>
      </trkpt>
      <trkpt lat="59.2215429799" lon="18.0851835686">
        <ele>27.2</ele>
        <time>2011-02-16T19:36:30Z</time>
      </trkpt>
      <trkpt lat="59.2215288983" lon="18.0851089697">
        <ele>27.2</ele>
        <time>2011-02-16T19:36:31Z</time>
      </trkpt>
      <trkpt lat="59.2215050099" lon="18.0850202054">
        <ele>27.2</ele>
        <time>2011-02-16T19:36:33Z</time>
      </trkpt>
      <trkpt lat="59.221478104" lon="18.0849469476">
        <ele>27.2</ele>
        <time>2011-02-16T19:36:36Z</time>
      </trkpt>
      <trkpt lat="59.2214522878" lon="18.0848987516">
        <ele>27.2</ele>
        <time>2011-02-16T19:36:38Z</time>
      </trkpt>
      <trkpt lat="59.2213694746" lon="18.0848679062">
        <ele>27.2</ele>
        <time>2011-02-16T19:36:41Z</time>
      </trkpt>
      <trkpt lat="59.2213060236" lon="18.0848871008">
        <ele>27.2</ele>
        <time>2011-02-16T19:36:43Z</time>
      </trkpt>
      <trkpt lat="59.22126973" lon="18.0848931358">
        <ele>27.2</ele>
        <time>2011-02-16T19:36:44Z</time>
      </trkpt>
      <trkpt lat="59.2211911916" lon="18.0849088099">
        <ele>27.2</ele>
        <time>2011-02-16T19:36:46Z</time>
      </trkpt>
      <trkpt lat="59.221100248" lon="18.0849138391">
        <ele>27.2</ele>
        <time>2011-02-16T19:36:48Z</time>
      </trkpt>
      <trkpt lat="59.2210056163" lon="18.084898584">
        <ele>27.2</ele>
        <time>2011-02-16T19:36:50Z</time>
      </trkpt>
      <trkpt lat="59.2209564984" lon="18.0848914594">
        <ele>27.2</ele>
        <time>2011-02-16T19:36:51Z</time>
      </trkpt>
      <trkpt lat="59.2208164368" lon="18.0848344625">
        <ele>27.2</ele>
        <time>2011-02-16T19:36:54Z</time>
      </trkpt>
      <trkpt lat="59.2207615354" lon="18.0848196265">
        <ele>27.2</ele>
        <time>2011-02-16T19:36:55Z</time>
      </trkpt>
      <trkpt lat="59.2207117469" lon="18.0848114961">
        <ele>27.2</ele>
        <time>2011-02-16T19:36:56Z</time>
      </trkpt>
      <trkpt lat="59.220563052" lon="18.0848697503">
        <ele>27.2</ele>
        <time>2011-02-16T19:36:59Z</time>
      </trkpt>
      <trkpt lat="59.2205197176" lon="18.0849029426">
        <ele>27.2</ele>
        <time>2011-02-16T19:37:00Z</time>
      </trkpt>
      <trkpt lat="59.2204392513" lon="18.0850540682">
        <ele>27.2</ele>
        <time>2011-02-16T19:37:03Z</time>
      </trkpt>
      <trkpt lat="59.2203938214" lon="18.0851710796">
        <ele>27.2</ele>
        <time>2011-02-16T19:37:05Z</time>
      </trkpt>
      <trkpt lat="59.2203779796" lon="18.0852273221">
        <ele>27.2</ele>
        <time>2011-02-16T19:37:06Z</time>
      </trkpt>
      <trkpt lat="59.220359288" lon="18.0852797928">
        <ele>27.2</ele>
        <time>2011-02-16T19:37:07Z</time>
      </trkpt>
      <trkpt lat="59.2203136905" lon="18.0853965527">
        <ele>27.2</ele>
        <time>2011-02-16T19:37:09Z</time>
      </trkpt>
      <trkpt lat="59.2202626447" lon="18.0855154918">
        <ele>27.2</ele>
        <time>2011-02-16T19:37:11Z</time>
      </trkpt>
      <trkpt lat="59.2202327213" lon="18.0855719858">
        <ele>27.2</ele>
        <time>2011-02-16T19:37:12Z</time>
      </trkpt>
      <trkpt lat="59.2201716173" lon="18.0856427291">
        <ele>27.2</ele>
        <time>2011-02-16T19:37:14Z</time>
      </trkpt>
      <trkpt lat="59.2201012931" lon="18.0856615045">
        <ele>27.2</ele>
        <time>2011-02-16T19:37:16Z</time>
      </trkpt>
      <trkpt lat="59.2200340703" lon="18.0856926014">
        <ele>27.2</ele>
        <time>2011-02-16T19:37:18Z</time>
      </trkpt>
      <trkpt lat="59.2199733853" lon="18.0857509394">
        <ele>27.2</ele>
        <time>2011-02-16T19:37:20Z</time>
      </trkpt>
      <trkpt lat="59.2199215852" lon="18.085799303">
        <ele>27.2</ele>
        <time>2011-02-16T19:37:22Z</time>
      </trkpt>
      <trkpt lat="59.2198597268" lon="18.0858485885">
        <ele>27.2</ele>
        <time>2011-02-16T19:37:24Z</time>
      </trkpt>
      <trkpt lat="59.219803568" lon="18.0858967006">
        <ele>27.2</ele>
        <time>2011-02-16T19:37:26Z</time>
      </trkpt>
      <trkpt lat="59.2197506782" lon="18.0859112852">
        <ele>27.2</ele>
        <time>2011-02-16T19:37:28Z</time>
      </trkpt>
      <trkpt lat="59.2197002192" lon="18.0859044958">
        <ele>27.2</ele>
        <time>2011-02-16T19:37:30Z</time>
      </trkpt>
      <trkpt lat="59.2196429708" lon="18.0858823676">
        <ele>27.2</ele>
        <time>2011-02-16T19:37:32Z</time>
      </trkpt>
      <trkpt lat="59.2195819506" lon="18.085826628">
        <ele>27.2</ele>
        <time>2011-02-16T19:37:35Z</time>
      </trkpt>
      <trkpt lat="59.2195099501" lon="18.0857565553">
        <ele>27.2</ele>
        <time>2011-02-16T19:37:38Z</time>
      </trkpt>
      <trkpt lat="59.2194634305" lon="18.0857190044">
        <ele>27.2</ele>
        <time>2011-02-16T19:37:40Z</time>
      </trkpt>
      <trkpt lat="59.2194091996" lon="18.0856729877">
        <ele>27.2</ele>
        <time>2011-02-16T19:37:42Z</time>
      </trkpt>
      <trkpt lat="59.2193821261" lon="18.0856690482">
        <ele>27.2</ele>
        <time>2011-02-16T19:37:43Z</time>
      </trkpt>
      <trkpt lat="59.2193287334" lon="18.0856422262">
        <ele>27.2</ele>
        <time>2011-02-16T19:37:46Z</time>
      </trkpt>
      <trkpt lat="59.2192804537" lon="18.0856251271">
        <ele>27.2</ele>
        <time>2011-02-16T19:37:47Z</time>
      </trkpt>
      <trkpt lat="59.2192360296" lon="18.0856128057">
        <ele>27.2</ele>
        <time>2011-02-16T19:37:49Z</time>
      </trkpt>
      <trkpt lat="59.2191895939" lon="18.0855976345">
        <ele>27.2</ele>
        <time>2011-02-16T19:37:51Z</time>
      </trkpt>
      <trkpt lat="59.2191294118" lon="18.0855721535">
        <ele>27.2</ele>
        <time>2011-02-16T19:37:53Z</time>
      </trkpt>
      <trkpt lat="59.2190953813" lon="18.0855538809">
        <ele>27.2</ele>
        <time>2011-02-16T19:37:54Z</time>
      </trkpt>
      <trkpt lat="59.2189600974" lon="18.0854803717">
        <ele>27.2</ele>
        <time>2011-02-16T19:37:57Z</time>
      </trkpt>
      <trkpt lat="59.218855659" lon="18.0853831416">
        <ele>27.2</ele>
        <time>2011-02-16T19:37:59Z</time>
      </trkpt>
      <trkpt lat="59.2187453532" lon="18.0852581675">
        <ele>27.2</ele>
        <time>2011-02-16T19:38:01Z</time>
      </trkpt>
      <trkpt lat="59.2186483746" lon="18.085154651">
        <ele>27.2</ele>
        <time>2011-02-16T19:38:03Z</time>
      </trkpt>
      <trkpt lat="59.2185586882" lon="18.0850694909">
        <ele>27.2</ele>
        <time>2011-02-16T19:38:06Z</time>
      </trkpt>
      <trkpt lat="59.2184812395" lon="18.085000927">
        <ele>27.2</ele>
        <time>2011-02-16T19:38:07Z</time>
      </trkpt>
      <trkpt lat="59.218449053" lon="18.084955078">
        <ele>27.2</ele>
        <time>2011-02-16T19:38:08Z</time>
      </trkpt>
      <trkpt lat="59.2183799861" lon="18.084866649">
        <ele>26.8</ele>
        <time>2011-02-16T19:38:10Z</time>
      </trkpt>
      <trkpt lat="59.2183517391" lon="18.0847912957">
        <ele>26.6</ele>
        <time>2011-02-16T19:38:11Z</time>
      </trkpt>
      <trkpt lat="59.2183094944" lon="18.084664729">
        <ele>26.2</ele>
        <time>2011-02-16T19:38:13Z</time>
      </trkpt>
      <trkpt lat="59.2182967539" lon="18.084613767">
        <ele>26.2</ele>
        <time>2011-02-16T19:38:14Z</time>
      </trkpt>
      <trkpt lat="59.2182367395" lon="18.0844247552">
        <ele>25.8</ele>
        <time>2011-02-16T19:38:17Z</time>
      </trkpt>
      <trkpt lat="59.2182069837" lon="18.0843312132">
        <ele>25.6</ele>
        <time>2011-02-16T19:38:19Z</time>
      </trkpt>
      <trkpt lat="59.2181737076" lon="18.0842473942">
        <ele>25.6</ele>
        <time>2011-02-16T19:38:21Z</time>
      </trkpt>
      <trkpt lat="59.2181328039" lon="18.0841458894">
        <ele>25.4</ele>
        <time>2011-02-16T19:38:24Z</time>
      </trkpt>
      <trkpt lat="59.218104976" lon="18.0840704523">
        <ele>25.4</ele>
        <time>2011-02-16T19:38:26Z</time>
      </trkpt>
      <trkpt lat="59.2180687662" lon="18.0839883097">
        <ele>25.2</ele>
        <time>2011-02-16T19:38:27Z</time>
      </trkpt>
      <trkpt lat="59.218023923" lon="18.0838954382">
        <ele>24.8</ele>
        <time>2011-02-16T19:38:29Z</time>
      </trkpt>
      <trkpt lat="59.2179587957" lon="18.0838023153">
        <ele>24.4</ele>
        <time>2011-02-16T19:38:31Z</time>
      </trkpt>
      <trkpt lat="59.2178764016" lon="18.0837199212">
        <ele>24.2</ele>
        <time>2011-02-16T19:38:33Z</time>
      </trkpt>
      <trkpt lat="59.2177834463" lon="18.0836485074">
        <ele>24</ele>
        <time>2011-02-16T19:38:35Z</time>
      </trkpt>
      <trkpt lat="59.217690072" lon="18.0835993057">
        <ele>23.8</ele>
        <time>2011-02-16T19:38:37Z</time>
      </trkpt>
      <trkpt lat="59.2176475757" lon="18.0835770098">
        <ele>23.6</ele>
        <time>2011-02-16T19:38:38Z</time>
      </trkpt>
      <trkpt lat="59.2175262058" lon="18.083541722">
        <ele>23.4</ele>
        <time>2011-02-16T19:38:41Z</time>
      </trkpt>
      <trkpt lat="59.2174627548" lon="18.083552367">
        <ele>23.4</ele>
        <time>2011-02-16T19:38:43Z</time>
      </trkpt>
      <trkpt lat="59.2174299816" lon="18.0835617548">
        <ele>23.4</ele>
        <time>2011-02-16T19:38:44Z</time>
      </trkpt>
      <trkpt lat="59.2173940232" lon="18.0835558036">
        <ele>23.4</ele>
        <time>2011-02-16T19:38:46Z</time>
      </trkpt>
      <trkpt lat="59.2173321648" lon="18.0835761716">
        <ele>23.2</ele>
        <time>2011-02-16T19:38:47Z</time>
      </trkpt>
      <trkpt lat="59.217279275" lon="18.0835999762">
        <ele>23.2</ele>
        <time>2011-02-16T19:38:49Z</time>
      </trkpt>
      <trkpt lat="59.2172248765" lon="18.0836300672">
        <ele>23</ele>
        <time>2011-02-16T19:38:51Z</time>
      </trkpt>
      <trkpt lat="59.2171657003" lon="18.0836725635">
        <ele>22.6</ele>
        <time>2011-02-16T19:38:53Z</time>
      </trkpt>
      <trkpt lat="59.2171136487" lon="18.0837043309">
        <ele>22.2</ele>
        <time>2011-02-16T19:38:55Z</time>
      </trkpt>
      <trkpt lat="59.217071823" lon="18.0837525268">
        <ele>22</ele>
        <time>2011-02-16T19:38:57Z</time>
      </trkpt>
      <trkpt lat="59.2170217831" lon="18.0837816958">
        <ele>21.8</ele>
        <time>2011-02-16T19:38:59Z</time>
      </trkpt>
      <trkpt lat="59.2169698153" lon="18.0838105296">
        <ele>21.6</ele>
        <time>2011-02-16T19:39:01Z</time>
      </trkpt>
      <trkpt lat="59.2169209488" lon="18.0838305623">
        <ele>21.6</ele>
        <time>2011-02-16T19:39:03Z</time>
      </trkpt>
      <trkpt lat="59.2168579169" lon="18.0838349209">
        <ele>21.4</ele>
        <time>2011-02-16T19:39:06Z</time>
      </trkpt>
      <trkpt lat="59.216812487" lon="18.0838370164">
        <ele>21.2</ele>
        <time>2011-02-16T19:39:09Z</time>
      </trkpt>
      <trkpt lat="59.2167955556" lon="18.0838387766">
        <ele>21.2</ele>
        <time>2011-02-16T19:39:14Z</time>
      </trkpt>
      <trkpt lat="59.2167315179" lon="18.0838296403">
        <ele>21</ele>
        <time>2011-02-16T19:39:19Z</time>
      </trkpt>
      <trkpt lat="59.216683741" lon="18.0838079312">
        <ele>21</ele>
        <time>2011-02-16T19:39:22Z</time>
      </trkpt>
      <trkpt lat="59.2166762811" lon="18.0837998007">
        <ele>21</ele>
        <time>2011-02-16T19:39:23Z</time>
      </trkpt>
      <trkpt lat="59.2165886065" lon="18.0837760799">
        <ele>21</ele>
        <time>2011-02-16T19:39:28Z</time>
      </trkpt>
      <trkpt lat="59.2165377283" lon="18.0837625851">
        <ele>21</ele>
        <time>2011-02-16T19:39:30Z</time>
      </trkpt>
      <trkpt lat="59.2164778816" lon="18.0837336675">
        <ele>21</ele>
        <time>2011-02-16T19:39:33Z</time>
      </trkpt>
      <trkpt lat="59.2164622074" lon="18.0837359306">
        <ele>21</ele>
        <time>2011-02-16T19:39:34Z</time>
      </trkpt>
      <trkpt lat="59.2163907098" lon="18.0837101982">
        <ele>21</ele>
        <time>2011-02-16T19:39:37Z</time>
      </trkpt>
      <trkpt lat="59.216330863" lon="18.0836964519">
        <ele>21</ele>
        <time>2011-02-16T19:39:39Z</time>
      </trkpt>
      <trkpt lat="59.2162685017" lon="18.0836857231">
        <ele>21</ele>
        <time>2011-02-16T19:39:41Z</time>
      </trkpt>
      <trkpt lat="59.2162077329" lon="18.0836582304">
        <ele>21</ele>
        <time>2011-02-16T19:39:43Z</time>
      </trkpt>
      <trkpt lat="59.2161371573" lon="18.083620009">
        <ele>21</ele>
        <time>2011-02-16T19:39:46Z</time>
      </trkpt>
      <trkpt lat="59.2160760533" lon="18.0835955338">
        <ele>21</ele>
        <time>2011-02-16T19:39:47Z</time>
      </trkpt>
      <trkpt lat="59.2160196431" lon="18.0835620062">
        <ele>21</ele>
        <time>2011-02-16T19:39:49Z</time>
      </trkpt>
      <trkpt lat="59.2159570303" lon="18.0835421411">
        <ele>21</ele>
        <time>2011-02-16T19:39:51Z</time>
      </trkpt>
      <trkpt lat="59.2159016259" lon="18.083516744">
        <ele>21</ele>
        <time>2011-02-16T19:39:54Z</time>
      </trkpt>
      <trkpt lat="59.2158390132" lon="18.0834901733">
        <ele>21</ele>
        <time>2011-02-16T19:39:56Z</time>
      </trkpt>
      <trkpt lat="59.2157886379" lon="18.0834605852">
        <ele>21</ele>
        <time>2011-02-16T19:39:58Z</time>
      </trkpt>
      <trkpt lat="59.2157338203" lon="18.0834516166">
        <ele>21</ele>
        <time>2011-02-16T19:39:59Z</time>
      </trkpt>
      <trkpt lat="59.2156841156" lon="18.0834535444">
        <ele>21</ele>
        <time>2011-02-16T19:40:02Z</time>
      </trkpt>
      <trkpt lat="59.2156339081" lon="18.0834574001">
        <ele>21</ele>
        <time>2011-02-16T19:40:04Z</time>
      </trkpt>
      <trkpt lat="59.215576995" lon="18.0835243715">
        <ele>21</ele>
        <time>2011-02-16T19:40:06Z</time>
      </trkpt>
      <trkpt lat="59.2155434674" lon="18.0836009821">
        <ele>21</ele>
        <time>2011-02-16T19:40:08Z</time>
      </trkpt>
      <trkpt lat="59.2155230993" lon="18.0836991341">
        <ele>21</ele>
        <time>2011-02-16T19:40:10Z</time>
      </trkpt>
      <trkpt lat="59.2155129572" lon="18.0838250302">
        <ele>21</ele>
        <time>2011-02-16T19:40:12Z</time>
      </trkpt>
      <trkpt lat="59.21551631" lon="18.0838923369">
        <ele>21</ele>
        <time>2011-02-16T19:40:13Z</time>
      </trkpt>
      <trkpt lat="59.2155504243" lon="18.0840505872">
        <ele>21</ele>
        <time>2011-02-16T19:40:16Z</time>
      </trkpt>
      <trkpt lat="59.2155882267" lon="18.0841654192">
        <ele>21</ele>
        <time>2011-02-16T19:40:18Z</time>
      </trkpt>
      <trkpt lat="59.2156386019" lon="18.08424379">
        <ele>21</ele>
        <time>2011-02-16T19:40:20Z</time>
      </trkpt>
      <trkpt lat="59.2156969399" lon="18.0843091688">
        <ele>21.2</ele>
        <time>2011-02-16T19:40:22Z</time>
      </trkpt>
      <trkpt lat="59.2157541883" lon="18.0843555207">
        <ele>21.6</ele>
        <time>2011-02-16T19:40:24Z</time>
      </trkpt>
      <trkpt lat="59.2158210759" lon="18.0843733741">
        <ele>21.8</ele>
        <time>2011-02-16T19:40:26Z</time>
      </trkpt>
      <trkpt lat="59.2158714511" lon="18.0843897188">
        <ele>22</ele>
        <time>2011-02-16T19:40:28Z</time>
      </trkpt>
      <trkpt lat="59.2159235027" lon="18.0844083267">
        <ele>22.2</ele>
        <time>2011-02-16T19:40:30Z</time>
      </trkpt>
      <trkpt lat="59.2159708604" lon="18.0844281918">
        <ele>22.4</ele>
        <time>2011-02-16T19:40:32Z</time>
      </trkpt>
      <trkpt lat="59.216029869" lon="18.0844348973">
        <ele>22.4</ele>
        <time>2011-02-16T19:40:34Z</time>
      </trkpt>
      <trkpt lat="59.2161051385" lon="18.0844414352">
        <ele>22.6</ele>
        <time>2011-02-16T19:40:36Z</time>
      </trkpt>
      <trkpt lat="59.2161746244" lon="18.0844493142">
        <ele>22.6</ele>
        <time>2011-02-16T19:40:38Z</time>
      </trkpt>
      <trkpt lat="59.2162425178" lon="18.0844570255">
        <ele>22.6</ele>
        <time>2011-02-16T19:40:40Z</time>
      </trkpt>
      <trkpt lat="59.2163210562" lon="18.0844711071">
        <ele>22.8</ele>
        <time>2011-02-16T19:40:42Z</time>
      </trkpt>
      <trkpt lat="59.2163862674" lon="18.0844576961">
        <ele>22.8</ele>
        <time>2011-02-16T19:40:44Z</time>
      </trkpt>
      <trkpt lat="59.216464722" lon="18.0844592886">
        <ele>22.8</ele>
        <time>2011-02-16T19:40:46Z</time>
      </trkpt>
      <trkpt lat="59.2165450206" lon="18.0844431115">
        <ele>22.8</ele>
        <time>2011-02-16T19:40:48Z</time>
      </trkpt>
      <trkpt lat="59.2166228046" lon="18.0844439497">
        <ele>22.8</ele>
        <time>2011-02-16T19:40:50Z</time>
      </trkpt>
      <trkpt lat="59.2166915362" lon="18.0844361546">
        <ele>22.8</ele>
        <time>2011-02-16T19:40:52Z</time>
      </trkpt>
      <trkpt lat="59.2167740141" lon="18.0844333047">
        <ele>23</ele>
        <time>2011-02-16T19:40:54Z</time>
      </trkpt>
      <trkpt lat="59.2168511276" lon="18.0844184688">
        <ele>23</ele>
        <time>2011-02-16T19:40:56Z</time>
      </trkpt>
      <trkpt lat="59.2168892652" lon="18.0844183011">
        <ele>23</ele>
        <time>2011-02-16T19:40:57Z</time>
      </trkpt>
      <trkpt lat="59.2169980623" lon="18.0843504916">
        <ele>23</ele>
        <time>2011-02-16T19:41:00Z</time>
      </trkpt>
      <trkpt lat="59.2170748405" lon="18.0842966798">
        <ele>23</ele>
        <time>2011-02-16T19:41:02Z</time>
      </trkpt>
      <trkpt lat="59.2171517025" lon="18.0842401019">
        <ele>23</ele>
        <time>2011-02-16T19:41:04Z</time>
      </trkpt>
      <trkpt lat="59.2172368626" lon="18.0841773215">
        <ele>23</ele>
        <time>2011-02-16T19:41:06Z</time>
      </trkpt>
      <trkpt lat="59.2172796941" lon="18.0841426204">
        <ele>23</ele>
        <time>2011-02-16T19:41:07Z</time>
      </trkpt>
      <trkpt lat="59.2173656924" lon="18.0841051533">
        <ele>23</ele>
        <time>2011-02-16T19:41:09Z</time>
      </trkpt>
      <trkpt lat="59.2174243657" lon="18.084093251">
        <ele>23</ele>
        <time>2011-02-16T19:41:10Z</time>
      </trkpt>
      <trkpt lat="59.2175114537" lon="18.0840984478">
        <ele>23</ele>
        <time>2011-02-16T19:41:12Z</time>
      </trkpt>
      <trkpt lat="59.2176000503" lon="18.0841292094">
        <ele>23</ele>
        <time>2011-02-16T19:41:14Z</time>
      </trkpt>
      <trkpt lat="59.2176907425" lon="18.0841847814">
        <ele>23</ele>
        <time>2011-02-16T19:41:16Z</time>
      </trkpt>
      <trkpt lat="59.2177676883" lon="18.0842536806">
        <ele>23</ele>
        <time>2011-02-16T19:41:18Z</time>
      </trkpt>
      <trkpt lat="59.217837761" lon="18.0843147847">
        <ele>23</ele>
        <time>2011-02-16T19:41:20Z</time>
      </trkpt>
      <trkpt lat="59.2178989489" lon="18.0843805826">
        <ele>23</ele>
        <time>2011-02-16T19:41:22Z</time>
      </trkpt>
      <trkpt lat="59.2179267768" lon="18.0844139425">
        <ele>23</ele>
        <time>2011-02-16T19:41:23Z</time>
      </trkpt>
      <trkpt lat="59.2180346519" lon="18.0845670798">
        <ele>23</ele>
        <time>2011-02-16T19:41:27Z</time>
      </trkpt>
      <trkpt lat="59.2180576183" lon="18.0846151081">
        <ele>23</ele>
        <time>2011-02-16T19:41:28Z</time>
      </trkpt>
      <trkpt lat="59.2181064847" lon="18.0846962449">
        <ele>22.8</ele>
        <time>2011-02-16T19:41:30Z</time>
      </trkpt>
      <trkpt lat="59.2181637331" lon="18.0847861827">
        <ele>22.4</ele>
        <time>2011-02-16T19:41:32Z</time>
      </trkpt>
      <trkpt lat="59.2181882083" lon="18.0848258291">
        <ele>22.2</ele>
        <time>2011-02-16T19:41:33Z</time>
      </trkpt>
      <trkpt lat="59.2182616337" lon="18.084963879">
        <ele>22</ele>
        <time>2011-02-16T19:41:36Z</time>
      </trkpt>
      <trkpt lat="59.218276302" lon="18.0850267432">
        <ele>21.8</ele>
        <time>2011-02-16T19:41:37Z</time>
      </trkpt>
      <trkpt lat="59.2182991846" lon="18.0851385578">
        <ele>21.6</ele>
        <time>2011-02-16T19:41:39Z</time>
      </trkpt>
      <trkpt lat="59.2183170381" lon="18.0852332733">
        <ele>21.4</ele>
        <time>2011-02-16T19:41:42Z</time>
      </trkpt>
      <trkpt lat="59.2183157808" lon="18.0852533898">
        <ele>21.4</ele>
        <time>2011-02-16T19:41:43Z</time>
      </trkpt>
      <trkpt lat="59.2183320417" lon="18.0854046831">
        <ele>21.2</ele>
        <time>2011-02-16T19:41:46Z</time>
      </trkpt>
      <trkpt lat="59.2183519906" lon="18.0855674596">
        <ele>21.2</ele>
        <time>2011-02-16T19:41:48Z</time>
      </trkpt>
      <trkpt lat="59.2183804891" lon="18.0856944454">
        <ele>21.2</ele>
        <time>2011-02-16T19:41:50Z</time>
      </trkpt>
      <trkpt lat="59.2184109992" lon="18.0858167373">
        <ele>21.2</ele>
        <time>2011-02-16T19:41:52Z</time>
      </trkpt>
      <trkpt lat="59.2184389109" lon="18.0859352574">
        <ele>21.2</ele>
        <time>2011-02-16T19:41:54Z</time>
      </trkpt>
      <trkpt lat="59.2184691696" lon="18.086056292">
        <ele>21</ele>
        <time>2011-02-16T19:41:56Z</time>
      </trkpt>
      <trkpt lat="59.2184949858" lon="18.0861709564">
        <ele>21</ele>
        <time>2011-02-16T19:41:58Z</time>
      </trkpt>
      <trkpt lat="59.2185149347" lon="18.0862163863">
        <ele>21</ele>
        <time>2011-02-16T19:41:59Z</time>
      </trkpt>
      <trkpt lat="59.2185468698" lon="18.0863284523">
        <ele>21</ele>
        <time>2011-02-16T19:42:01Z</time>
      </trkpt>
      <trkpt lat="59.2185634659" lon="18.0863870418">
        <ele>21</ele>
        <time>2011-02-16T19:42:02Z</time>
      </trkpt>
      <trkpt lat="59.2185909586" lon="18.0865276063">
        <ele>21</ele>
        <time>2011-02-16T19:42:05Z</time>
      </trkpt>
      <trkpt lat="59.2186140926" lon="18.0866076534">
        <ele>21</ele>
        <time>2011-02-16T19:42:07Z</time>
      </trkpt>
      <trkpt lat="59.2186357179" lon="18.086684264">
        <ele>21</ele>
        <time>2011-02-16T19:42:09Z</time>
      </trkpt>
      <trkpt lat="59.2186661442" lon="18.0867802367">
        <ele>21</ele>
        <time>2011-02-16T19:42:11Z</time>
      </trkpt>
      <trkpt lat="59.2186936368" lon="18.0868800652">
        <ele>21</ele>
        <time>2011-02-16T19:42:13Z</time>
      </trkpt>
      <trkpt lat="59.2187164356" lon="18.0869793069">
        <ele>21</ele>
        <time>2011-02-16T19:42:15Z</time>
      </trkpt>
      <trkpt lat="59.2187416651" lon="18.0870896127">
        <ele>21</ele>
        <time>2011-02-16T19:42:17Z</time>
      </trkpt>
      <trkpt lat="59.2187735163" lon="18.087208468">
        <ele>21</ele>
        <time>2011-02-16T19:42:19Z</time>
      </trkpt>
      <trkpt lat="59.2188059543" lon="18.0873249764">
        <ele>21</ele>
        <time>2011-02-16T19:42:21Z</time>
      </trkpt>
      <trkpt lat="59.2188155097" lon="18.0873949653">
        <ele>21</ele>
        <time>2011-02-16T19:42:22Z</time>
      </trkpt>
      <trkpt lat="59.2188370511" lon="18.087514575">
        <ele>21</ele>
        <time>2011-02-16T19:42:24Z</time>
      </trkpt>
      <trkpt lat="59.2188755241" lon="18.0877931055">
        <ele>21</ele>
        <time>2011-02-16T19:42:30Z</time>
      </trkpt>
      <trkpt lat="59.2188953054" lon="18.0879017349">
        <ele>21</ele>
        <time>2011-02-16T19:42:32Z</time>
      </trkpt>
      <trkpt lat="59.2189162601" lon="18.0880266253">
        <ele>21</ele>
        <time>2011-02-16T19:42:34Z</time>
      </trkpt>
      <trkpt lat="59.2189194452" lon="18.0880909982">
        <ele>21</ele>
        <time>2011-02-16T19:42:35Z</time>
      </trkpt>
      <trkpt lat="59.2189435013" lon="18.0882422077">
        <ele>21</ele>
        <time>2011-02-16T19:42:38Z</time>
      </trkpt>
      <trkpt lat="59.2189543139" lon="18.0882860451">
        <ele>21</ele>
        <time>2011-02-16T19:42:39Z</time>
      </trkpt>
      <trkpt lat="59.218976526" lon="18.0884159645">
        <ele>21</ele>
        <time>2011-02-16T19:42:42Z</time>
      </trkpt>
      <trkpt lat="59.2189942956" lon="18.0885438723">
        <ele>21</ele>
        <time>2011-02-16T19:42:45Z</time>
      </trkpt>
      <trkpt lat="59.2190164238" lon="18.0886259311">
        <ele>21</ele>
        <time>2011-02-16T19:42:47Z</time>
      </trkpt>
      <trkpt lat="59.2190281585" lon="18.0887243346">
        <ele>21</ele>
        <time>2011-02-16T19:42:49Z</time>
      </trkpt>
      <trkpt lat="59.2190476883" lon="18.0888628036">
        <ele>21</ele>
        <time>2011-02-16T19:42:52Z</time>
      </trkpt>
      <trkpt lat="59.2190516278" lon="18.0889057189">
        <ele>21</ele>
        <time>2011-02-16T19:42:53Z</time>
      </trkpt>
      <trkpt lat="59.2190730855" lon="18.0890368957">
        <ele>21.2</ele>
        <time>2011-02-16T19:42:56Z</time>
      </trkpt>
      <trkpt lat="59.2190881729" lon="18.0891379814">
        <ele>21.6</ele>
        <time>2011-02-16T19:42:58Z</time>
      </trkpt>
      <trkpt lat="59.2191123966" lon="18.0892451859">
        <ele>21.8</ele>
        <time>2011-02-16T19:43:00Z</time>
      </trkpt>
      <trkpt lat="59.2191356144" lon="18.0893527257">
        <ele>22</ele>
        <time>2011-02-16T19:43:02Z</time>
      </trkpt>
      <trkpt lat="59.2191483549" lon="18.0893946352">
        <ele>22.2</ele>
        <time>2011-02-16T19:43:03Z</time>
      </trkpt>
      <trkpt lat="59.2191884204" lon="18.0894905241">
        <ele>22.4</ele>
        <time>2011-02-16T19:43:05Z</time>
      </trkpt>
      <trkpt lat="59.2192398014" lon="18.0895963875">
        <ele>22.4</ele>
        <time>2011-02-16T19:43:07Z</time>
      </trkpt>
      <trkpt lat="59.2192902605" lon="18.0896833916">
        <ele>22.6</ele>
        <time>2011-02-16T19:43:09Z</time>
      </trkpt>
      <trkpt lat="59.2193360257" lon="18.0897844773">
        <ele>22.6</ele>
        <time>2011-02-16T19:43:11Z</time>
      </trkpt>
      <trkpt lat="59.2193630154" lon="18.0899144806">
        <ele>22.8</ele>
        <time>2011-02-16T19:43:13Z</time>
      </trkpt>
      <trkpt lat="59.2193871552" lon="18.0900324139">
        <ele>22.8</ele>
        <time>2011-02-16T19:43:15Z</time>
      </trkpt>
      <trkpt lat="59.2194060983" lon="18.0901503473">
        <ele>22.8</ele>
        <time>2011-02-16T19:43:17Z</time>
      </trkpt>
      <trkpt lat="59.2194246223" lon="18.0902500919">
        <ele>22.8</ele>
        <time>2011-02-16T19:43:19Z</time>
      </trkpt>
      <trkpt lat="59.2194413861" lon="18.0903488307">
        <ele>22.8</ele>
        <time>2011-02-16T19:43:21Z</time>
      </trkpt>
      <trkpt lat="59.2194549648" lon="18.0904422888">
        <ele>23</ele>
        <time>2011-02-16T19:43:23Z</time>
      </trkpt>
      <trkpt lat="59.2194661966" lon="18.0905679335">
        <ele>23</ele>
        <time>2011-02-16T19:43:26Z</time>
      </trkpt>
      <trkpt lat="59.2194832956" lon="18.0906749704">
        <ele>23</ele>
        <time>2011-02-16T19:43:28Z</time>
      </trkpt>
      <trkpt lat="59.2194988022" lon="18.0907860306">
        <ele>23</ele>
        <time>2011-02-16T19:43:30Z</time>
      </trkpt>
      <trkpt lat="59.2195135543" lon="18.0908845179">
        <ele>23</ele>
        <time>2011-02-16T19:43:32Z</time>
      </trkpt>
      <trkpt lat="59.2195210142" lon="18.0909897107">
        <ele>23</ele>
        <time>2011-02-16T19:43:34Z</time>
      </trkpt>
      <trkpt lat="59.219518332" lon="18.0911066382">
        <ele>23</ele>
        <time>2011-02-16T19:43:36Z</time>
      </trkpt>
      <trkpt lat="59.2195029931" lon="18.091186853">
        <ele>23</ele>
        <time>2011-02-16T19:43:38Z</time>
      </trkpt>
      <trkpt lat="59.2194418052" lon="18.0913235618">
        <ele>23</ele>
        <time>2011-02-16T19:43:42Z</time>
      </trkpt>
      <trkpt lat="59.2194123848" lon="18.0913782956">
        <ele>23</ele>
        <time>2011-02-16T19:43:45Z</time>
      </trkpt>
      <trkpt lat="59.2194063498" lon="18.0913932992">
        <ele>23</ele>
        <time>2011-02-16T19:43:49Z</time>
      </trkpt>
      <trkpt lat="59.2193625963" lon="18.0914834885">
        <ele>23.2</ele>
        <time>2011-02-16T19:43:54Z</time>
      </trkpt>
      <trkpt lat="59.219321525" lon="18.0915595123">
        <ele>23.8</ele>
        <time>2011-02-16T19:43:57Z</time>
      </trkpt>
      <trkpt lat="59.2192709821" lon="18.0916061995">
        <ele>24</ele>
        <time>2011-02-16T19:44:00Z</time>
      </trkpt>
      <trkpt lat="59.2192532963" lon="18.0916310099">
        <ele>24.2</ele>
        <time>2011-02-16T19:44:01Z</time>
      </trkpt>
      <trkpt lat="59.2192061062" lon="18.0916787029">
        <ele>24.4</ele>
        <time>2011-02-16T19:44:04Z</time>
      </trkpt>
      <trkpt lat="59.2191429905" lon="18.0917260606">
        <ele>24.6</ele>
        <time>2011-02-16T19:44:07Z</time>
      </trkpt>
      <trkpt lat="59.2190735884" lon="18.0917637792">
        <ele>24.6</ele>
        <time>2011-02-16T19:44:10Z</time>
      </trkpt>
      <trkpt lat="59.2190170105" lon="18.0918003243">
        <ele>24.8</ele>
        <time>2011-02-16T19:44:13Z</time>
      </trkpt>
      <trkpt lat="59.2189612709" lon="18.0918414794">
        <ele>24.8</ele>
        <time>2011-02-16T19:44:16Z</time>
      </trkpt>
      <trkpt lat="59.2189196967" lon="18.0918852329">
        <ele>24.8</ele>
        <time>2011-02-16T19:44:19Z</time>
      </trkpt>
      <trkpt lat="59.2188888513" lon="18.0919119712">
        <ele>25</ele>
        <time>2011-02-16T19:44:22Z</time>
      </trkpt>
      <trkpt lat="59.2188782901" lon="18.0919315848">
        <ele>25</ele>
        <time>2011-02-16T19:44:23Z</time>
      </trkpt>
      <trkpt lat="59.2188414936" lon="18.0919717341">
        <ele>25</ele>
        <time>2011-02-16T19:44:26Z</time>
      </trkpt>
      <trkpt lat="59.2187995841" lon="18.0920225284">
        <ele>25</ele>
        <time>2011-02-16T19:44:29Z</time>
      </trkpt>
      <trkpt lat="59.2187813953" lon="18.092046333">
        <ele>25</ele>
        <time>2011-02-16T19:44:30Z</time>
      </trkpt>
      <trkpt lat="59.2187090595" lon="18.0921454071">
        <ele>25</ele>
        <time>2011-02-16T19:44:33Z</time>
      </trkpt>
      <trkpt lat="59.2186644678" lon="18.0922202575">
        <ele>25</ele>
        <time>2011-02-16T19:44:35Z</time>
      </trkpt>
      <trkpt lat="59.2186507215" lon="18.0922673637">
        <ele>25</ele>
        <time>2011-02-16T19:44:36Z</time>
      </trkpt>
      <trkpt lat="59.218619457" lon="18.0923736462">
        <ele>25</ele>
        <time>2011-02-16T19:44:38Z</time>
      </trkpt>
      <trkpt lat="59.2186067165" lon="18.0924695352">
        <ele>25</ele>
        <time>2011-02-16T19:44:40Z</time>
      </trkpt>
      <trkpt lat="59.2186094826" lon="18.0925724649">
        <ele>25</ele>
        <time>2011-02-16T19:44:42Z</time>
      </trkpt>
      <trkpt lat="59.2186129191" lon="18.0926277854">
        <ele>25</ele>
        <time>2011-02-16T19:44:43Z</time>
      </trkpt>
      <trkpt lat="59.2186259949" lon="18.0927746363">
        <ele>25</ele>
        <time>2011-02-16T19:44:46Z</time>
      </trkpt>
      <trkpt lat="59.2186451895" lon="18.0928867862">
        <ele>25</ele>
        <time>2011-02-16T19:44:48Z</time>
      </trkpt>
      <trkpt lat="59.2186633782" lon="18.0930021211">
        <ele>25</ele>
        <time>2011-02-16T19:44:50Z</time>
      </trkpt>
      <trkpt lat="59.2186869313" lon="18.0931116725">
        <ele>25</ele>
        <time>2011-02-16T19:44:52Z</time>
      </trkpt>
      <trkpt lat="59.218709311" lon="18.0932166139">
        <ele>25</ele>
        <time>2011-02-16T19:44:54Z</time>
      </trkpt>
      <trkpt lat="59.2187300981" lon="18.0933202142">
        <ele>25</ele>
        <time>2011-02-16T19:44:56Z</time>
      </trkpt>
      <trkpt lat="59.2187451855" lon="18.0934184501">
        <ele>25.2</ele>
        <time>2011-02-16T19:44:58Z</time>
      </trkpt>
      <trkpt lat="59.2187568364" lon="18.0934582641">
        <ele>25.4</ele>
        <time>2011-02-16T19:44:59Z</time>
      </trkpt>
      <trkpt lat="59.2187758633" lon="18.0935590983">
        <ele>25.8</ele>
        <time>2011-02-16T19:45:01Z</time>
      </trkpt>
      <trkpt lat="59.218788939" lon="18.0936133292">
        <ele>25.8</ele>
        <time>2011-02-16T19:45:02Z</time>
      </trkpt>
      <trkpt lat="59.2187952255" lon="18.0936710805">
        <ele>26</ele>
        <time>2011-02-16T19:45:03Z</time>
      </trkpt>
      <trkpt lat="59.2188124084" lon="18.0937781174">
        <ele>26.2</ele>
        <time>2011-02-16T19:45:05Z</time>
      </trkpt>
      <trkpt lat="59.2188296751" lon="18.0938905187">
        <ele>26.4</ele>
        <time>2011-02-16T19:45:07Z</time>
      </trkpt>
      <trkpt lat="59.2188476123" lon="18.0939952924">
        <ele>26.4</ele>
        <time>2011-02-16T19:45:09Z</time>
      </trkpt>
      <trkpt lat="59.218856581" lon="18.0940554745">
        <ele>26.6</ele>
        <time>2011-02-16T19:45:10Z</time>
      </trkpt>
      <trkpt lat="59.2188942995" lon="18.0942089471">
        <ele>26.6</ele>
        <time>2011-02-16T19:45:13Z</time>
      </trkpt>
      <trkpt lat="59.2189156734" lon="18.0943159001">
        <ele>26.8</ele>
        <time>2011-02-16T19:45:15Z</time>
      </trkpt>
      <trkpt lat="59.2189405676" lon="18.0944305645">
        <ele>26.8</ele>
        <time>2011-02-16T19:45:17Z</time>
      </trkpt>
      <trkpt lat="59.21896169" lon="18.0945409541">
        <ele>26.8</ele>
        <time>2011-02-16T19:45:19Z</time>
      </trkpt>
      <trkpt lat="59.2189838182" lon="18.0946435486">
        <ele>26.8</ele>
        <time>2011-02-16T19:45:21Z</time>
      </trkpt>
      <trkpt lat="59.2190035157" lon="18.0947491605">
        <ele>27</ele>
        <time>2011-02-16T19:45:23Z</time>
      </trkpt>
      <trkpt lat="59.2190468501" lon="18.0949540141">
        <ele>27</ele>
        <time>2011-02-16T19:45:27Z</time>
      </trkpt>
      <trkpt lat="59.2190724987" lon="18.0950595423">
        <ele>27</ele>
        <time>2011-02-16T19:45:29Z</time>
      </trkpt>
      <trkpt lat="59.2190975606" lon="18.0951596222">
        <ele>27</ele>
        <time>2011-02-16T19:45:31Z</time>
      </trkpt>
      <trkpt lat="59.2191155817" lon="18.0952498114">
        <ele>27</ele>
        <time>2011-02-16T19:45:33Z</time>
      </trkpt>
      <trkpt lat="59.2191258914" lon="18.0952968339">
        <ele>27</ele>
        <time>2011-02-16T19:45:34Z</time>
      </trkpt>
      <trkpt lat="59.219161263" lon="18.0954163598">
        <ele>27</ele>
        <time>2011-02-16T19:45:38Z</time>
      </trkpt>
      <trkpt lat="59.2191801223" lon="18.0955197086">
        <ele>27</ele>
        <time>2011-02-16T19:45:41Z</time>
      </trkpt>
      <trkpt lat="59.2192064415" lon="18.0956122448">
        <ele>27</ele>
        <time>2011-02-16T19:45:44Z</time>
      </trkpt>
      <trkpt lat="59.219215913" lon="18.0956578423">
        <ele>27</ele>
        <time>2011-02-16T19:45:45Z</time>
      </trkpt>
      <trkpt lat="59.2192419807" lon="18.0957684834">
        <ele>27</ele>
        <time>2011-02-16T19:45:48Z</time>
      </trkpt>
      <trkpt lat="59.219248351" lon="18.0958022624">
        <ele>27.2</ele>
        <time>2011-02-16T19:45:49Z</time>
      </trkpt>
      <trkpt lat="59.2192815433" lon="18.0959718283">
        <ele>27.8</ele>
        <time>2011-02-16T19:45:53Z</time>
      </trkpt>
      <trkpt lat="59.2193068566" lon="18.0960901807">
        <ele>28.2</ele>
        <time>2011-02-16T19:45:56Z</time>
      </trkpt>
      <trkpt lat="59.2193084492" lon="18.0961280669">
        <ele>28.2</ele>
        <time>2011-02-16T19:45:57Z</time>
      </trkpt>
      <trkpt lat="59.2193158253" lon="18.096197469">
        <ele>28.4</ele>
        <time>2011-02-16T19:46:00Z</time>
      </trkpt>
      <trkpt lat="59.2193155738" lon="18.0962078626">
        <ele>28.6</ele>
        <time>2011-02-16T19:46:01Z</time>
      </trkpt>
      <trkpt lat="59.2193533762" lon="18.0962812042">
        <ele>29</ele>
        <time>2011-02-16T19:46:05Z</time>
      </trkpt>
      <trkpt lat="59.2193888316" lon="18.0963391231">
        <ele>29.4</ele>
        <time>2011-02-16T19:46:07Z</time>
      </trkpt>
      <trkpt lat="59.2194455771" lon="18.0963936893">
        <ele>29.8</ele>
        <time>2011-02-16T19:46:10Z</time>
      </trkpt>
      <trkpt lat="59.2194902526" lon="18.0964363532">
        <ele>30</ele>
        <time>2011-02-16T19:46:12Z</time>
      </trkpt>
      <trkpt lat="59.2195430586" lon="18.0965148077">
        <ele>30.4</ele>
        <time>2011-02-16T19:46:15Z</time>
      </trkpt>
      <trkpt lat="59.2195872312" lon="18.0965876465">
        <ele>30.6</ele>
        <time>2011-02-16T19:46:18Z</time>
      </trkpt>
      <trkpt lat="59.2196179928" lon="18.096644811">
        <ele>30.6</ele>
        <time>2011-02-16T19:46:21Z</time>
      </trkpt>
      <trkpt lat="59.2196452339" lon="18.0966914144">
        <ele>31.2</ele>
        <time>2011-02-16T19:46:24Z</time>
      </trkpt>
      <trkpt lat="59.219672056" lon="18.0967424602">
        <ele>31.8</ele>
        <time>2011-02-16T19:46:28Z</time>
      </trkpt>
      <trkpt lat="59.2196754088" lon="18.0967541948">
        <ele>31.8</ele>
        <time>2011-02-16T19:46:29Z</time>
      </trkpt>
      <trkpt lat="59.2196884007" lon="18.0967865489">
        <ele>32.2</ele>
        <time>2011-02-16T19:46:32Z</time>
      </trkpt>
      <trkpt lat="59.2197270413" lon="18.0968395226">
        <ele>32.6</ele>
        <time>2011-02-16T19:46:36Z</time>
      </trkpt>
      <trkpt lat="59.2197819427" lon="18.0969089247">
        <ele>32.8</ele>
        <time>2011-02-16T19:46:39Z</time>
      </trkpt>
      <trkpt lat="59.2198269535" lon="18.0969994492">
        <ele>32.8</ele>
        <time>2011-02-16T19:46:41Z</time>
      </trkpt>
      <trkpt lat="59.2198631633" lon="18.0970610562">
        <ele>32.8</ele>
        <time>2011-02-16T19:46:43Z</time>
      </trkpt>
      <trkpt lat="59.2198766582" lon="18.09710372">
        <ele>33</ele>
        <time>2011-02-16T19:46:44Z</time>
      </trkpt>
      <trkpt lat="59.2199362535" lon="18.0972189712">
        <ele>33</ele>
        <time>2011-02-16T19:46:47Z</time>
      </trkpt>
      <trkpt lat="59.219957795" lon="18.0972576117">
        <ele>33</ele>
        <time>2011-02-16T19:46:48Z</time>
      </trkpt>
      <trkpt lat="59.2200201563" lon="18.097379736">
        <ele>33</ele>
        <time>2011-02-16T19:46:51Z</time>
      </trkpt>
      <trkpt lat="59.2200582102" lon="18.0974582744">
        <ele>33</ele>
        <time>2011-02-16T19:46:53Z</time>
      </trkpt>
      <trkpt lat="59.2201003711" lon="18.0975447756">
        <ele>33</ele>
        <time>2011-02-16T19:46:55Z</time>
      </trkpt>
      <trkpt lat="59.2201347369" lon="18.0976249066">
        <ele>33.2</ele>
        <time>2011-02-16T19:46:57Z</time>
      </trkpt>
      <trkpt lat="59.2201716173" lon="18.09770948">
        <ele>33.2</ele>
        <time>2011-02-16T19:46:59Z</time>
      </trkpt>
      <trkpt lat="59.2202076594" lon="18.0978045307">
        <ele>33.2</ele>
        <time>2011-02-16T19:47:01Z</time>
      </trkpt>
      <trkpt lat="59.220238421" lon="18.097900252">
        <ele>33.2</ele>
        <time>2011-02-16T19:47:03Z</time>
      </trkpt>
      <trkpt lat="59.220270859" lon="18.0980012539">
        <ele>33.2</ele>
        <time>2011-02-16T19:47:05Z</time>
      </trkpt>
      <trkpt lat="59.2202775645" lon="18.0980513777">
        <ele>33.2</ele>
        <time>2011-02-16T19:47:06Z</time>
      </trkpt>
      <trkpt lat="59.220297681" lon="18.0981583307">
        <ele>33.2</ele>
        <time>2011-02-16T19:47:08Z</time>
      </trkpt>
      <trkpt lat="59.2203186358" lon="18.0982660381">
        <ele>33.2</ele>
        <time>2011-02-16T19:47:10Z</time>
      </trkpt>
      <trkpt lat="59.220354175" lon="18.0983796967">
        <ele>33.2</ele>
        <time>2011-02-16T19:47:12Z</time>
      </trkpt>
      <trkpt lat="59.2203827573" lon="18.0985002284">
        <ele>33.2</ele>
        <time>2011-02-16T19:47:14Z</time>
      </trkpt>
      <trkpt lat="59.220403293" lon="18.0985635117">
        <ele>33.2</ele>
        <time>2011-02-16T19:47:15Z</time>
      </trkpt>
      <trkpt lat="59.2204348927" lon="18.0987887334">
        <ele>33.2</ele>
        <time>2011-02-16T19:47:18Z</time>
      </trkpt>
      <trkpt lat="59.2204690071" lon="18.0989509232">
        <ele>33.2</ele>
        <time>2011-02-16T19:47:20Z</time>
      </trkpt>
      <trkpt lat="59.2205053007" lon="18.0990971035">
        <ele>33.2</ele>
        <time>2011-02-16T19:47:22Z</time>
      </trkpt>
      <trkpt lat="59.2205363976" lon="18.0991970157">
        <ele>33.2</ele>
        <time>2011-02-16T19:47:24Z</time>
      </trkpt>
      <trkpt lat="59.220594065" lon="18.0992854448">
        <ele>33.2</ele>
        <time>2011-02-16T19:47:26Z</time>
      </trkpt>
      <trkpt lat="59.2206504752" lon="18.0993479738">
        <ele>33.2</ele>
        <time>2011-02-16T19:47:28Z</time>
      </trkpt>
      <trkpt lat="59.2207150158" lon="18.0994151128">
        <ele>33.2</ele>
        <time>2011-02-16T19:47:30Z</time>
      </trkpt>
      <trkpt lat="59.2207790536" lon="18.0994863589">
        <ele>33.2</ele>
        <time>2011-02-16T19:47:32Z</time>
      </trkpt>
      <trkpt lat="59.2208485395" lon="18.0995408413">
        <ele>33</ele>
        <time>2011-02-16T19:47:34Z</time>
      </trkpt>
      <trkpt lat="59.220921965" lon="18.0996141829">
        <ele>32.6</ele>
        <time>2011-02-16T19:47:36Z</time>
      </trkpt>
      <trkpt lat="59.2210016768" lon="18.0996866863">
        <ele>32.2</ele>
        <time>2011-02-16T19:47:38Z</time>
      </trkpt>
      <trkpt lat="59.221071079" lon="18.0997877721">
        <ele>32</ele>
        <time>2011-02-16T19:47:40Z</time>
      </trkpt>
      <trkpt lat="59.2211335241" lon="18.0998674839">
        <ele>31.8</ele>
        <time>2011-02-16T19:47:42Z</time>
      </trkpt>
      <trkpt lat="59.2211844022" lon="18.0999466091">
        <ele>31.8</ele>
        <time>2011-02-16T19:47:44Z</time>
      </trkpt>
      <trkpt lat="59.2212191033" lon="18.1000366307">
        <ele>31.6</ele>
        <time>2011-02-16T19:47:46Z</time>
      </trkpt>
      <trkpt lat="59.2212633597" lon="18.1000990758">
        <ele>31.2</ele>
        <time>2011-02-16T19:47:48Z</time>
      </trkpt>
      <trkpt lat="59.2212993181" lon="18.1001775304">
        <ele>30.8</ele>
        <time>2011-02-16T19:47:50Z</time>
      </trkpt>
      <trkpt lat="59.2213351926" lon="18.1002555659">
        <ele>30.6</ele>
        <time>2011-02-16T19:47:52Z</time>
      </trkpt>
      <trkpt lat="59.2213654513" lon="18.1003314221">
        <ele>30.2</ele>
        <time>2011-02-16T19:47:54Z</time>
      </trkpt>
      <trkpt lat="59.2213992303" lon="18.1004128103">
        <ele>30</ele>
        <time>2011-02-16T19:47:56Z</time>
      </trkpt>
      <trkpt lat="59.2214309977" lon="18.1004833021">
        <ele>29.8</ele>
        <time>2011-02-16T19:47:58Z</time>
      </trkpt>
      <trkpt lat="59.2214585742" lon="18.1005573143">
        <ele>29.6</ele>
        <time>2011-02-16T19:48:00Z</time>
      </trkpt>
      <trkpt lat="59.2214926885" lon="18.1006123834">
        <ele>29.6</ele>
        <time>2011-02-16T19:48:02Z</time>
      </trkpt>
      <trkpt lat="59.2215038365" lon="18.1006438155">
        <ele>29.4</ele>
        <time>2011-02-16T19:48:03Z</time>
      </trkpt>
      <trkpt lat="59.2215307424" lon="18.1007010639">
        <ele>29.4</ele>
        <time>2011-02-16T19:48:05Z</time>
      </trkpt>
      <trkpt lat="59.221559157" lon="18.1007801052">
        <ele>29.4</ele>
        <time>2011-02-16T19:48:08Z</time>
      </trkpt>
      <trkpt lat="59.2215741606" lon="18.1008444782">
        <ele>29.2</ele>
        <time>2011-02-16T19:48:11Z</time>
      </trkpt>
      <trkpt lat="59.2216004798" lon="18.1009114496">
        <ele>29.2</ele>
        <time>2011-02-16T19:48:14Z</time>
      </trkpt>
      <trkpt lat="59.2216262122" lon="18.1009796782">
        <ele>29.2</ele>
        <time>2011-02-16T19:48:17Z</time>
      </trkpt>
      <trkpt lat="59.2216373601" lon="18.1010187379">
        <ele>29.2</ele>
        <time>2011-02-16T19:48:18Z</time>
      </trkpt>
      <trkpt lat="59.2216575605" lon="18.1010837814">
        <ele>29</ele>
        <time>2011-02-16T19:48:21Z</time>
      </trkpt>
      <trkpt lat="59.2216933512" lon="18.1011169738">
        <ele>29</ele>
        <time>2011-02-16T19:48:24Z</time>
      </trkpt>
      <trkpt lat="59.2217628372" lon="18.1010994556">
        <ele>28.4</ele>
        <time>2011-02-16T19:48:28Z</time>
      </trkpt>
      <trkpt lat="59.2218253661" lon="18.1010816021">
        <ele>28</ele>
        <time>2011-02-16T19:48:31Z</time>
      </trkpt>
      <trkpt lat="59.2218581394" lon="18.1010737232">
        <ele>27.8</ele>
        <time>2011-02-16T19:48:33Z</time>
      </trkpt>
      <trkpt lat="59.2218244441" lon="18.1010213363">
        <ele>27</ele>
        <time>2011-02-16T19:49:06Z</time>
      </trkpt>
      <trkpt lat="59.2218068421" lon="18.1008930094">
        <ele>27</ele>
        <time>2011-02-16T19:49:09Z</time>
      </trkpt>
      <trkpt lat="59.2217928444" lon="18.1007856373">
        <ele>27.2</ele>
        <time>2011-02-16T19:49:11Z</time>
      </trkpt>
      <trkpt lat="59.2217873961" lon="18.1006858926">
        <ele>27.4</ele>
        <time>2011-02-16T19:49:13Z</time>
      </trkpt>
      <trkpt lat="59.221776332" lon="18.1005999782">
        <ele>27.8</ele>
        <time>2011-02-16T19:49:15Z</time>
      </trkpt>
      <trkpt lat="59.2217483365" lon="18.1004517024">
        <ele>28</ele>
        <time>2011-02-16T19:49:18Z</time>
      </trkpt>
      <trkpt lat="59.2217288066" lon="18.1002935359">
        <ele>28.2</ele>
        <time>2011-02-16T19:49:20Z</time>
      </trkpt>
      <trkpt lat="59.2216989671" lon="18.100085581">
        <ele>28.4</ele>
        <time>2011-02-16T19:49:22Z</time>
      </trkpt>
      <trkpt lat="59.2216657748" lon="18.0998706691">
        <ele>28.4</ele>
        <time>2011-02-16T19:49:24Z</time>
      </trkpt>
      <trkpt lat="59.2216521123" lon="18.0997728523">
        <ele>28.6</ele>
        <time>2011-02-16T19:49:25Z</time>
      </trkpt>
      <trkpt lat="59.2216071853" lon="18.0995176234">
        <ele>28.6</ele>
        <time>2011-02-16T19:49:28Z</time>
      </trkpt>
      <trkpt lat="59.2215602466" lon="18.0992942458">
        <ele>28.8</ele>
        <time>2011-02-16T19:49:31Z</time>
      </trkpt>
      <trkpt lat="59.2215393757" lon="18.099192741">
        <ele>28.8</ele>
        <time>2011-02-16T19:49:32Z</time>
      </trkpt>
      <trkpt lat="59.2214783555" lon="18.0989940899">
        <ele>28.8</ele>
        <time>2011-02-16T19:49:35Z</time>
      </trkpt>
      <trkpt lat="59.2214479292" lon="18.0989010509">
        <ele>28.8</ele>
        <time>2011-02-16T19:49:37Z</time>
      </trkpt>
      <trkpt lat="59.2214250466" lon="18.0988258652">
        <ele>28.8</ele>
        <time>2011-02-16T19:49:39Z</time>
      </trkpt>
      <trkpt lat="59.2214177543" lon="18.098799127">
        <ele>28.8</ele>
        <time>2011-02-16T19:49:40Z</time>
      </trkpt>
      <trkpt lat="59.2213801196" lon="18.0986702133">
        <ele>28.8</ele>
        <time>2011-02-16T19:49:44Z</time>
      </trkpt>
      <trkpt lat="59.2213675468" lon="18.0986406252">
        <ele>28.8</ele>
        <time>2011-02-16T19:49:45Z</time>
      </trkpt>
      <trkpt lat="59.2213321751" lon="18.0985210993">
        <ele>29</ele>
        <time>2011-02-16T19:49:49Z</time>
      </trkpt>
      <trkpt lat="59.2213107175" lon="18.0984598276">
        <ele>29</ele>
        <time>2011-02-16T19:49:51Z</time>
      </trkpt>
      <trkpt lat="59.2212810455" lon="18.0983658665">
        <ele>29</ele>
        <time>2011-02-16T19:49:53Z</time>
      </trkpt>
      <trkpt lat="59.2212731666" lon="18.0983287347">
        <ele>29</ele>
        <time>2011-02-16T19:49:54Z</time>
      </trkpt>
      <trkpt lat="59.2212256412" lon="18.098156319">
        <ele>29</ele>
        <time>2011-02-16T19:49:58Z</time>
      </trkpt>
      <trkpt lat="59.2212021719" lon="18.0980377152">
        <ele>29</ele>
        <time>2011-02-16T19:50:01Z</time>
      </trkpt>
      <trkpt lat="59.2211725838" lon="18.0979301754">
        <ele>29</ele>
        <time>2011-02-16T19:50:04Z</time>
      </trkpt>
      <trkpt lat="59.2211464322" lon="18.0978378907">
        <ele>29</ele>
        <time>2011-02-16T19:50:06Z</time>
      </trkpt>
      <trkpt lat="59.2211197778" lon="18.0977202926">
        <ele>29</ele>
        <time>2011-02-16T19:50:09Z</time>
      </trkpt>
      <trkpt lat="59.2210746832" lon="18.0975760401">
        <ele>29</ele>
        <time>2011-02-16T19:50:11Z</time>
      </trkpt>
      <trkpt lat="59.2210191112" lon="18.0974257526">
        <ele>29</ele>
        <time>2011-02-16T19:50:13Z</time>
      </trkpt>
      <trkpt lat="59.2209455181" lon="18.0972649878">
        <ele>29</ele>
        <time>2011-02-16T19:50:15Z</time>
      </trkpt>
      <trkpt lat="59.2208564185" lon="18.0970713659">
        <ele>29</ele>
        <time>2011-02-16T19:50:17Z</time>
      </trkpt>
      <trkpt lat="59.2207755332" lon="18.0969051528">
        <ele>29</ele>
        <time>2011-02-16T19:50:19Z</time>
      </trkpt>
      <trkpt lat="59.220702443" lon="18.0967555359">
        <ele>29</ele>
        <time>2011-02-16T19:50:21Z</time>
      </trkpt>
      <trkpt lat="59.220664473" lon="18.0966859661">
        <ele>29</ele>
        <time>2011-02-16T19:50:22Z</time>
      </trkpt>
      <trkpt lat="59.2205932268" lon="18.09651749">
        <ele>29</ele>
        <time>2011-02-16T19:50:25Z</time>
      </trkpt>
      <trkpt lat="59.2204925602" lon="18.0962780191">
        <ele>29</ele>
        <time>2011-02-16T19:50:31Z</time>
      </trkpt>
      <trkpt lat="59.2204747906" lon="18.0961724071">
        <ele>29</ele>
        <time>2011-02-16T19:50:33Z</time>
      </trkpt>
      <trkpt lat="59.220457943" lon="18.0960535518">
        <ele>28.6</ele>
        <time>2011-02-16T19:50:35Z</time>
      </trkpt>
      <trkpt lat="59.2204493934" lon="18.0959268175">
        <ele>28.2</ele>
        <time>2011-02-16T19:50:37Z</time>
      </trkpt>
      <trkpt lat="59.2204442805" lon="18.0957995802">
        <ele>28</ele>
        <time>2011-02-16T19:50:39Z</time>
      </trkpt>
      <trkpt lat="59.2204348927" lon="18.0956404918">
        <ele>27.8</ele>
        <time>2011-02-16T19:50:41Z</time>
      </trkpt>
      <trkpt lat="59.220417626" lon="18.0954859295">
        <ele>27.6</ele>
        <time>2011-02-16T19:50:43Z</time>
      </trkpt>
      <trkpt lat="59.2204038797" lon="18.095360201">
        <ele>27.6</ele>
        <time>2011-02-16T19:50:45Z</time>
      </trkpt>
      <trkpt lat="59.220396336" lon="18.095256936">
        <ele>27.4</ele>
        <time>2011-02-16T19:50:47Z</time>
      </trkpt>
      <trkpt lat="59.2203878703" lon="18.0951161201">
        <ele>27.2</ele>
        <time>2011-02-16T19:50:50Z</time>
      </trkpt>
      <trkpt lat="59.220390804" lon="18.0949623122">
        <ele>27.2</ele>
        <time>2011-02-16T19:50:52Z</time>
      </trkpt>
      <trkpt lat="59.2203993535" lon="18.0947810956">
        <ele>27.2</ele>
        <time>2011-02-16T19:50:54Z</time>
      </trkpt>
      <trkpt lat="59.2204078192" lon="18.0945772477">
        <ele>27.2</ele>
        <time>2011-02-16T19:50:56Z</time>
      </trkpt>
      <trkpt lat="59.2204115072" lon="18.0944190813">
        <ele>27</ele>
        <time>2011-02-16T19:50:58Z</time>
      </trkpt>
      <trkpt lat="59.2204180451" lon="18.0942534549">
        <ele>27</ele>
        <time>2011-02-16T19:51:00Z</time>
      </trkpt>
      <trkpt lat="59.2204198053" lon="18.0941197636">
        <ele>27</ele>
        <time>2011-02-16T19:51:02Z</time>
      </trkpt>
      <trkpt lat="59.2204209788" lon="18.094060336">
        <ele>27</ele>
        <time>2011-02-16T19:51:03Z</time>
      </trkpt>
      <trkpt lat="59.2204431908" lon="18.0938432448">
        <ele>27</ele>
        <time>2011-02-16T19:51:06Z</time>
      </trkpt>
      <trkpt lat="59.2204460407" lon="18.0937771116">
        <ele>27</ele>
        <time>2011-02-16T19:51:07Z</time>
      </trkpt>
      <trkpt lat="59.2204585297" lon="18.0935834897">
        <ele>27</ele>
        <time>2011-02-16T19:51:11Z</time>
      </trkpt>
      <trkpt lat="59.2204681689" lon="18.0934383152">
        <ele>27</ele>
        <time>2011-02-16T19:51:12Z</time>
      </trkpt>
      <trkpt lat="59.2204790654" lon="18.0932919672">
        <ele>27</ele>
        <time>2011-02-16T19:51:14Z</time>
      </trkpt>
      <trkpt lat="59.2204883693" lon="18.0931353933">
        <ele>27</ele>
        <time>2011-02-16T19:51:16Z</time>
      </trkpt>
      <trkpt lat="59.2204955777" lon="18.092968845">
        <ele>27</ele>
        <time>2011-02-16T19:51:18Z</time>
      </trkpt>
      <trkpt lat="59.2204964159" lon="18.092817384">
        <ele>26.8</ele>
        <time>2011-02-16T19:51:20Z</time>
      </trkpt>
      <trkpt lat="59.220496835" lon="18.092671539">
        <ele>26.4</ele>
        <time>2011-02-16T19:51:22Z</time>
      </trkpt>
      <trkpt lat="59.2204918058" lon="18.0925194913">
        <ele>26.2</ele>
        <time>2011-02-16T19:51:24Z</time>
      </trkpt>
      <trkpt lat="59.2204823343" lon="18.092361241">
        <ele>25.8</ele>
        <time>2011-02-16T19:51:26Z</time>
      </trkpt>
      <trkpt lat="59.2204728628" lon="18.0922756618">
        <ele>25.8</ele>
        <time>2011-02-16T19:51:27Z</time>
      </trkpt>
      <trkpt lat="59.220457021" lon="18.0921239494">
        <ele>25.6</ele>
        <time>2011-02-16T19:51:29Z</time>
      </trkpt>
      <trkpt lat="59.2204357309" lon="18.0919548865">
        <ele>25.4</ele>
        <time>2011-02-16T19:51:31Z</time>
      </trkpt>
      <trkpt lat="59.2204184642" lon="18.091870397">
        <ele>25.4</ele>
        <time>2011-02-16T19:51:32Z</time>
      </trkpt>
      <trkpt lat="59.2203873674" lon="18.0917086263">
        <ele>25.4</ele>
        <time>2011-02-16T19:51:34Z</time>
      </trkpt>
      <trkpt lat="59.2203715256" lon="18.0916258131">
        <ele>25.2</ele>
        <time>2011-02-16T19:51:35Z</time>
      </trkpt>
      <trkpt lat="59.2203320468" lon="18.0913927963">
        <ele>25.2</ele>
        <time>2011-02-16T19:51:38Z</time>
      </trkpt>
      <trkpt lat="59.2203040513" lon="18.0912381502">
        <ele>25.2</ele>
        <time>2011-02-16T19:51:40Z</time>
      </trkpt>
      <trkpt lat="59.2202712781" lon="18.0911087337">
        <ele>25</ele>
        <time>2011-02-16T19:51:42Z</time>
      </trkpt>
      <trkpt lat="59.2202537599" lon="18.0910418461">
        <ele>25</ele>
        <time>2011-02-16T19:51:43Z</time>
      </trkpt>
      <trkpt lat="59.2202214058" lon="18.0909260921">
        <ele>25</ele>
        <time>2011-02-16T19:51:45Z</time>
      </trkpt>
      <trkpt lat="59.2201895545" lon="18.0908039678">
        <ele>25</ele>
        <time>2011-02-16T19:51:47Z</time>
      </trkpt>
      <trkpt lat="59.2201592959" lon="18.0906931591">
        <ele>25</ele>
        <time>2011-02-16T19:51:49Z</time>
      </trkpt>
      <trkpt lat="59.2201310489" lon="18.0905880501">
        <ele>25</ele>
        <time>2011-02-16T19:51:51Z</time>
      </trkpt>
      <trkpt lat="59.220117554" lon="18.090543626">
        <ele>25</ele>
        <time>2011-02-16T19:51:52Z</time>
      </trkpt>
      <trkpt lat="59.2200906481" lon="18.0904271176">
        <ele>25</ele>
        <time>2011-02-16T19:51:54Z</time>
      </trkpt>
      <trkpt lat="59.2200670112" lon="18.0903324021">
        <ele>25</ele>
        <time>2011-02-16T19:51:56Z</time>
      </trkpt>
      <trkpt lat="59.2200437933" lon="18.0902272093">
        <ele>25</ele>
        <time>2011-02-16T19:51:58Z</time>
      </trkpt>
      <trkpt lat="59.2200363334" lon="18.0901777561">
        <ele>25</ele>
        <time>2011-02-16T19:51:59Z</time>
      </trkpt>
      <trkpt lat="59.2199863773" lon="18.0900336712">
        <ele>25</ele>
        <time>2011-02-16T19:52:03Z</time>
      </trkpt>
      <trkpt lat="59.2199626565" lon="18.0899275564">
        <ele>24.8</ele>
        <time>2011-02-16T19:52:04Z</time>
      </trkpt>
      <trkpt lat="59.2199330684" lon="18.0898384568">
        <ele>24.8</ele>
        <time>2011-02-16T19:52:07Z</time>
      </trkpt>
      <trkpt lat="59.219911946" lon="18.0897439089">
        <ele>24.8</ele>
        <time>2011-02-16T19:52:08Z</time>
      </trkpt>
      <trkpt lat="59.2198893149" lon="18.0896522109">
        <ele>24.8</ele>
        <time>2011-02-16T19:52:10Z</time>
      </trkpt>
      <trkpt lat="59.2198647559" lon="18.0895539751">
        <ele>24.8</ele>
        <time>2011-02-16T19:52:12Z</time>
      </trkpt>
      <trkpt lat="59.2198519316" lon="18.0895061982">
        <ele>24.8</ele>
        <time>2011-02-16T19:52:13Z</time>
      </trkpt>
      <trkpt lat="59.2198276241" lon="18.089405364">
        <ele>24.8</ele>
        <time>2011-02-16T19:52:15Z</time>
      </trkpt>
      <trkpt lat="59.2198048253" lon="18.0893557431">
        <ele>24.8</ele>
        <time>2011-02-16T19:52:16Z</time>
      </trkpt>
      <trkpt lat="59.219779512" lon="18.0892513885">
        <ele>24.8</ele>
        <time>2011-02-16T19:52:18Z</time>
      </trkpt>
      <trkpt lat="59.2197539472" lon="18.0891564216">
        <ele>24.8</ele>
        <time>2011-02-16T19:52:20Z</time>
      </trkpt>
      <trkpt lat="59.2197246105" lon="18.0890573475">
        <ele>24.8</ele>
        <time>2011-02-16T19:52:22Z</time>
      </trkpt>
      <trkpt lat="59.2197046616" lon="18.0889788929">
        <ele>24.8</ele>
        <time>2011-02-16T19:52:24Z</time>
      </trkpt>
      <trkpt lat="59.219684126" lon="18.0889096584">
        <ele>24.8</ele>
        <time>2011-02-16T19:52:26Z</time>
      </trkpt>
      <trkpt lat="59.2196612434" lon="18.0888203912">
        <ele>24.8</ele>
        <time>2011-02-16T19:52:27Z</time>
      </trkpt>
      <trkpt lat="59.2196227705" lon="18.0886765578">
        <ele>24.8</ele>
        <time>2011-02-16T19:52:30Z</time>
      </trkpt>
      <trkpt lat="59.2195931823" lon="18.0885581215">
        <ele>24.8</ele>
        <time>2011-02-16T19:52:32Z</time>
      </trkpt>
      <trkpt lat="59.2195708865" lon="18.0884561138">
        <ele>24.8</ele>
        <time>2011-02-16T19:52:34Z</time>
      </trkpt>
      <trkpt lat="59.2195459084" lon="18.0883415332">
        <ele>24.8</ele>
        <time>2011-02-16T19:52:36Z</time>
      </trkpt>
      <trkpt lat="59.219521098" lon="18.0882314789">
        <ele>24.8</ele>
        <time>2011-02-16T19:52:38Z</time>
      </trkpt>
      <trkpt lat="59.2194980478" lon="18.0881089355">
        <ele>24.8</ele>
        <time>2011-02-16T19:52:40Z</time>
      </trkpt>
      <trkpt lat="59.2194822898" lon="18.0879880685">
        <ele>24.8</ele>
        <time>2011-02-16T19:52:42Z</time>
      </trkpt>
      <trkpt lat="59.2194758357" lon="18.0878765892">
        <ele>24.8</ele>
        <time>2011-02-16T19:52:44Z</time>
      </trkpt>
      <trkpt lat="59.2194816193" lon="18.0877629307">
        <ele>24.8</ele>
        <time>2011-02-16T19:52:46Z</time>
      </trkpt>
      <trkpt lat="59.2194883248" lon="18.0876614259">
        <ele>24.8</ele>
        <time>2011-02-16T19:52:48Z</time>
      </trkpt>
      <trkpt lat="59.2194927672" lon="18.087578026">
        <ele>24.8</ele>
        <time>2011-02-16T19:52:50Z</time>
      </trkpt>
      <trkpt lat="59.2194918452" lon="18.0875532155">
        <ele>24.8</ele>
        <time>2011-02-16T19:52:51Z</time>
      </trkpt>
      <trkpt lat="59.2195064297" lon="18.08744928">
        <ele>24.8</ele>
        <time>2011-02-16T19:52:55Z</time>
      </trkpt>
      <trkpt lat="59.219528977" lon="18.0873538101">
        <ele>24.8</ele>
        <time>2011-02-16T19:52:58Z</time>
      </trkpt>
      <trkpt lat="59.2195375265" lon="18.0873031835">
        <ele>24.8</ele>
        <time>2011-02-16T19:52:59Z</time>
      </trkpt>
      <trkpt lat="59.219581783" lon="18.087142251">
        <ele>24.8</ele>
        <time>2011-02-16T19:53:02Z</time>
      </trkpt>
      <trkpt lat="59.2196195853" lon="18.0870493795">
        <ele>24.8</ele>
        <time>2011-02-16T19:53:04Z</time>
      </trkpt>
      <trkpt lat="59.2196561304" lon="18.0869599447">
        <ele>24.8</ele>
        <time>2011-02-16T19:53:07Z</time>
      </trkpt>
      <trkpt lat="59.2196838745" lon="18.0868734435">
        <ele>24.8</ele>
        <time>2011-02-16T19:53:08Z</time>
      </trkpt>
      <trkpt lat="59.2197140493" lon="18.0867803205">
        <ele>24.8</ele>
        <time>2011-02-16T19:53:10Z</time>
      </trkpt>
      <trkpt lat="59.2197587249" lon="18.0866635607">
        <ele>24.8</ele>
        <time>2011-02-16T19:53:12Z</time>
      </trkpt>
      <trkpt lat="59.2198010535" lon="18.0865345632">
        <ele>24.8</ele>
        <time>2011-02-16T19:53:14Z</time>
      </trkpt>
      <trkpt lat="59.2198639177" lon="18.0864312982">
        <ele>24.8</ele>
        <time>2011-02-16T19:53:16Z</time>
      </trkpt>
      <trkpt lat="59.2199021392" lon="18.0864244251">
        <ele>24.8</ele>
        <time>2011-02-16T19:53:17Z</time>
      </trkpt>
      <trkpt lat="59.2199745588" lon="18.0864645744">
        <ele>24.8</ele>
        <time>2011-02-16T19:53:19Z</time>
      </trkpt>
      <trkpt lat="59.2200098466" lon="18.0865104234">
        <ele>24.8</ele>
        <time>2011-02-16T19:53:20Z</time>
      </trkpt>
      <trkpt lat="59.2201207391" lon="18.0866330506">
        <ele>25</ele>
        <time>2011-02-16T19:53:23Z</time>
      </trkpt>
      <trkpt lat="59.2201602179" lon="18.0866463778">
        <ele>25.2</ele>
        <time>2011-02-16T19:53:24Z</time>
      </trkpt>
      <trkpt lat="59.2202272731" lon="18.0866805759">
        <ele>25.6</ele>
        <time>2011-02-16T19:53:26Z</time>
      </trkpt>
      <trkpt lat="59.2202913946" lon="18.0866913886">
        <ele>25.8</ele>
        <time>2011-02-16T19:53:28Z</time>
      </trkpt>
      <trkpt lat="59.2203566058" lon="18.0867116728">
        <ele>26</ele>
        <time>2011-02-16T19:53:31Z</time>
      </trkpt>
      <trkpt lat="59.2204276005" lon="18.0867549234">
        <ele>26.2</ele>
        <time>2011-02-16T19:53:33Z</time>
      </trkpt>
      <trkpt lat="59.2204807417" lon="18.0867892892">
        <ele>26.4</ele>
        <time>2011-02-16T19:53:35Z</time>
      </trkpt>
      <trkpt lat="59.2205345535" lon="18.0868379042">
        <ele>26.4</ele>
        <time>2011-02-16T19:53:37Z</time>
      </trkpt>
      <trkpt lat="59.2205817436" lon="18.086861625">
        <ele>26.6</ele>
        <time>2011-02-16T19:53:39Z</time>
      </trkpt>
      <trkpt lat="59.2206099068" lon="18.0868964937">
        <ele>26.6</ele>
        <time>2011-02-16T19:53:40Z</time>
      </trkpt>
      <trkpt lat="59.2206530736" lon="18.0869386546">
        <ele>26.6</ele>
        <time>2011-02-16T19:53:42Z</time>
      </trkpt>
      <trkpt lat="59.2207036165" lon="18.0869819891">
        <ele>26.8</ele>
        <time>2011-02-16T19:53:44Z</time>
      </trkpt>
      <trkpt lat="59.2207581826" lon="18.0870471164">
        <ele>26.8</ele>
        <time>2011-02-16T19:53:46Z</time>
      </trkpt>
      <trkpt lat="59.2208071329" lon="18.0871242299">
        <ele>26.8</ele>
        <time>2011-02-16T19:53:48Z</time>
      </trkpt>
      <trkpt lat="59.2208446838" lon="18.0872219629">
        <ele>26.8</ele>
        <time>2011-02-16T19:53:50Z</time>
      </trkpt>
      <trkpt lat="59.2208692428" lon="18.0873315143">
        <ele>26.8</ele>
        <time>2011-02-16T19:53:52Z</time>
      </trkpt>
      <trkpt lat="59.2208881859" lon="18.0874350308">
        <ele>26.8</ele>
        <time>2011-02-16T19:53:54Z</time>
      </trkpt>
      <trkpt lat="59.2209185284" lon="18.0875316741">
        <ele>26.8</ele>
        <time>2011-02-16T19:53:56Z</time>
      </trkpt>
      <trkpt lat="59.2209611922" lon="18.0876180076">
        <ele>26.8</ele>
        <time>2011-02-16T19:53:58Z</time>
      </trkpt>
      <trkpt lat="59.220988182" lon="18.0876457517">
        <ele>27</ele>
        <time>2011-02-16T19:53:59Z</time>
      </trkpt>
      <trkpt lat="59.2210850767" lon="18.0877022457">
        <ele>27</ele>
        <time>2011-02-16T19:54:02Z</time>
      </trkpt>
      <trkpt lat="59.2211524672" lon="18.087715992">
        <ele>27</ele>
        <time>2011-02-16T19:54:04Z</time>
      </trkpt>
      <trkpt lat="59.2212272338" lon="18.0877205183">
        <ele>27</ele>
        <time>2011-02-16T19:54:06Z</time>
      </trkpt>
      <trkpt lat="59.2213027547" lon="18.0877163273">
        <ele>27</ele>
        <time>2011-02-16T19:54:08Z</time>
      </trkpt>
      <trkpt lat="59.2213738332" lon="18.0877254636">
        <ele>27</ele>
        <time>2011-02-16T19:54:10Z</time>
      </trkpt>
      <trkpt lat="59.2214446602" lon="18.0877410539">
        <ele>27</ele>
        <time>2011-02-16T19:54:12Z</time>
      </trkpt>
      <trkpt lat="59.221510542" lon="18.0877557222">
        <ele>27</ele>
        <time>2011-02-16T19:54:14Z</time>
      </trkpt>
      <trkpt lat="59.2215780163" lon="18.0877693847">
        <ele>27</ele>
        <time>2011-02-16T19:54:16Z</time>
      </trkpt>
      <trkpt lat="59.2216307384" lon="18.0877763417">
        <ele>27.4</ele>
        <time>2011-02-16T19:54:18Z</time>
      </trkpt>
      <trkpt lat="59.2216946085" lon="18.0877937761">
        <ele>27.8</ele>
        <time>2011-02-16T19:54:21Z</time>
      </trkpt>
      <trkpt lat="59.2217127134" lon="18.0877890822">
        <ele>28</ele>
        <time>2011-02-16T19:54:22Z</time>
      </trkpt>
      <trkpt lat="59.2217660223" lon="18.0877952848">
        <ele>28.2</ele>
        <time>2011-02-16T19:54:26Z</time>
      </trkpt>
      <trkpt lat="59.2217996337" lon="18.0878143117">
        <ele>28.4</ele>
        <time>2011-02-16T19:54:27Z</time>
      </trkpt>
      <trkpt lat="59.2218657669" lon="18.0878397089">
        <ele>28.4</ele>
        <time>2011-02-16T19:54:29Z</time>
      </trkpt>
      <trkpt lat="59.2219346661" lon="18.0878615856">
        <ele>28.6</ele>
        <time>2011-02-16T19:54:31Z</time>
      </trkpt>
      <trkpt lat="59.2219681937" lon="18.0878650222">
        <ele>28.6</ele>
        <time>2011-02-16T19:54:32Z</time>
      </trkpt>
      <trkpt lat="59.2220286272" lon="18.0878725659">
        <ele>28.8</ele>
        <time>2011-02-16T19:54:34Z</time>
      </trkpt>
      <trkpt lat="59.222092162" lon="18.0878819537">
        <ele>28.8</ele>
        <time>2011-02-16T19:54:36Z</time>
      </trkpt>
      <trkpt lat="59.2221576247" lon="18.0878956162">
        <ele>28.8</ele>
        <time>2011-02-16T19:54:38Z</time>
      </trkpt>
      <trkpt lat="59.2222184772" lon="18.0878977955">
        <ele>28.8</ele>
        <time>2011-02-16T19:54:40Z</time>
      </trkpt>
      <trkpt lat="59.2222809224" lon="18.0879200075">
        <ele>28.8</ele>
        <time>2011-02-16T19:54:42Z</time>
      </trkpt>
      <trkpt lat="59.2223423617" lon="18.0879543733">
        <ele>29</ele>
        <time>2011-02-16T19:54:44Z</time>
      </trkpt>
      <trkpt lat="59.2223753864" lon="18.0879588995">
        <ele>29</ele>
        <time>2011-02-16T19:54:45Z</time>
      </trkpt>
      <trkpt lat="59.2224361552" lon="18.0879858892">
        <ele>29</ele>
        <time>2011-02-16T19:54:47Z</time>
      </trkpt>
      <trkpt lat="59.2224909728" lon="18.0880215123">
        <ele>29</ele>
        <time>2011-02-16T19:54:49Z</time>
      </trkpt>
      <trkpt lat="59.2225539209" lon="18.0880801018">
        <ele>29</ele>
        <time>2011-02-16T19:54:51Z</time>
      </trkpt>
      <trkpt lat="59.2226226525" lon="18.0881037387">
        <ele>28.8</ele>
        <time>2011-02-16T19:54:53Z</time>
      </trkpt>
      <trkpt lat="59.2226923061" lon="18.0881396971">
        <ele>28.4</ele>
        <time>2011-02-16T19:54:55Z</time>
      </trkpt>
      <trkpt lat="59.2227531586" lon="18.0881808522">
        <ele>28.2</ele>
        <time>2011-02-16T19:54:57Z</time>
      </trkpt>
      <trkpt lat="59.2228120834" lon="18.0882142122">
        <ele>27.8</ele>
        <time>2011-02-16T19:54:59Z</time>
      </trkpt>
      <trkpt lat="59.2228833296" lon="18.088258301">
        <ele>27.6</ele>
        <time>2011-02-16T19:55:01Z</time>
      </trkpt>
      <trkpt lat="59.2229198746" lon="18.0882831952">
        <ele>27.6</ele>
        <time>2011-02-16T19:55:02Z</time>
      </trkpt>
      <trkpt lat="59.223017859" lon="18.0883898968">
        <ele>27.4</ele>
        <time>2011-02-16T19:55:06Z</time>
      </trkpt>
      <trkpt lat="59.2230666417" lon="18.0884741349">
        <ele>27.4</ele>
        <time>2011-02-16T19:55:07Z</time>
      </trkpt>
      <trkpt lat="59.2231029353" lon="18.0885502425">
        <ele>27.2</ele>
        <time>2011-02-16T19:55:09Z</time>
      </trkpt>
      <trkpt lat="59.2231121554" lon="18.0886027971">
        <ele>27.2</ele>
        <time>2011-02-16T19:55:10Z</time>
      </trkpt>
      <trkpt lat="59.2231339484" lon="18.0886994404">
        <ele>27.2</ele>
        <time>2011-02-16T19:55:12Z</time>
      </trkpt>
      <trkpt lat="59.223149874" lon="18.088790384">
        <ele>27</ele>
        <time>2011-02-16T19:55:14Z</time>
      </trkpt>
      <trkpt lat="59.2231637879" lon="18.0888919726">
        <ele>27</ele>
        <time>2011-02-16T19:55:16Z</time>
      </trkpt>
      <trkpt lat="59.2231648776" lon="18.0889353909">
        <ele>27</ele>
        <time>2011-02-16T19:55:17Z</time>
      </trkpt>
      <trkpt lat="59.223185078" lon="18.0890602812">
        <ele>27</ele>
        <time>2011-02-16T19:55:20Z</time>
      </trkpt>
      <trkpt lat="59.2231977346" lon="18.0891104049">
        <ele>27</ele>
        <time>2011-02-16T19:55:21Z</time>
      </trkpt>
      <trkpt lat="59.223239225" lon="18.0892328645">
        <ele>27</ele>
        <time>2011-02-16T19:55:23Z</time>
      </trkpt>
      <trkpt lat="59.2233512072" lon="18.0892418331">
        <ele>27</ele>
        <time>2011-02-16T19:55:27Z</time>
      </trkpt>
      <trkpt lat="59.2234175919" lon="18.0892111554">
        <ele>27</ele>
        <time>2011-02-16T19:55:29Z</time>
      </trkpt>
      <trkpt lat="59.2234874131" lon="18.0891640491">
        <ele>27</ele>
        <time>2011-02-16T19:55:32Z</time>
      </trkpt>
      <trkpt lat="59.2235114691" lon="18.0891589361">
        <ele>27</ele>
        <time>2011-02-16T19:55:33Z</time>
      </trkpt>
      <trkpt lat="59.2235966292" lon="18.089080733">
        <ele>27</ele>
        <time>2011-02-16T19:55:36Z</time>
      </trkpt>
      <trkpt lat="59.22365371" lon="18.0890731893">
        <ele>27</ele>
        <time>2011-02-16T19:55:38Z</time>
      </trkpt>
      <trkpt lat="59.2237106231" lon="18.0890301063">
        <ele>27</ele>
        <time>2011-02-16T19:55:40Z</time>
      </trkpt>
      <trkpt lat="59.2237372775" lon="18.0890277594">
        <ele>27</ele>
        <time>2011-02-16T19:55:41Z</time>
      </trkpt>
      <trkpt lat="59.2237743255" lon="18.0890266697">
        <ele>27</ele>
        <time>2011-02-16T19:55:43Z</time>
      </trkpt>
      <trkpt lat="59.2238405425" lon="18.0890378177">
        <ele>26.8</ele>
        <time>2011-02-16T19:55:44Z</time>
      </trkpt>
      <trkpt lat="59.2239196677" lon="18.0890509773">
        <ele>26.8</ele>
        <time>2011-02-16T19:55:46Z</time>
      </trkpt>
      <trkpt lat="59.2239915844" lon="18.0890632148">
        <ele>26.8</ele>
        <time>2011-02-16T19:55:48Z</time>
      </trkpt>
      <trkpt lat="59.2240672729" lon="18.0890744466">
        <ele>26.8</ele>
        <time>2011-02-16T19:55:50Z</time>
      </trkpt>
      <trkpt lat="59.2241012196" lon="18.0890863489">
        <ele>26.8</ele>
        <time>2011-02-16T19:55:51Z</time>
      </trkpt>
      <trkpt lat="59.2242020539" lon="18.0891749456">
        <ele>26.8</ele>
        <time>2011-02-16T19:55:54Z</time>
      </trkpt>
      <trkpt lat="59.22423072" lon="18.0892267457">
        <ele>26.8</ele>
        <time>2011-02-16T19:55:55Z</time>
      </trkpt>
      <trkpt lat="59.2242680194" lon="18.0894209543">
        <ele>26.8</ele>
        <time>2011-02-16T19:55:58Z</time>
      </trkpt>
      <trkpt lat="59.2242710369" lon="18.0894771969">
        <ele>26.8</ele>
        <time>2011-02-16T19:55:59Z</time>
      </trkpt>
      <trkpt lat="59.2242658401" lon="18.0896917735">
        <ele>26.8</ele>
        <time>2011-02-16T19:56:02Z</time>
      </trkpt>
      <trkpt lat="59.2242535187" lon="18.0898288176">
        <ele>26.8</ele>
        <time>2011-02-16T19:56:04Z</time>
      </trkpt>
      <trkpt lat="59.2242546084" lon="18.0899088647">
        <ele>26.8</ele>
        <time>2011-02-16T19:56:06Z</time>
      </trkpt>
      <trkpt lat="59.2242587993" lon="18.0900692105">
        <ele>26.8</ele>
        <time>2011-02-16T19:56:08Z</time>
      </trkpt>
      <trkpt lat="59.2242764013" lon="18.0901817794">
        <ele>26.8</ele>
        <time>2011-02-16T19:56:10Z</time>
      </trkpt>
      <trkpt lat="59.2242883875" lon="18.0902868046">
        <ele>26.8</ele>
        <time>2011-02-16T19:56:12Z</time>
      </trkpt>
      <trkpt lat="59.2243161315" lon="18.0904128684">
        <ele>26.8</ele>
        <time>2011-02-16T19:56:15Z</time>
      </trkpt>
      <trkpt lat="59.2243458035" lon="18.090487132">
        <ele>26.8</ele>
        <time>2011-02-16T19:56:17Z</time>
      </trkpt>
      <trkpt lat="59.2243917363" lon="18.0905601383">
        <ele>26.8</ele>
        <time>2011-02-16T19:56:19Z</time>
      </trkpt>
      <trkpt lat="59.2244211567" lon="18.0905971863">
        <ele>26.8</ele>
        <time>2011-02-16T19:56:21Z</time>
      </trkpt>
      <trkpt lat="59.2244789919" lon="18.0906494894">
        <ele>26.8</ele>
        <time>2011-02-16T19:56:22Z</time>
      </trkpt>
      <trkpt lat="59.2245407665" lon="18.0906884652">
        <ele>26.8</ele>
        <time>2011-02-16T19:56:24Z</time>
      </trkpt>
      <trkpt lat="59.2246401758" lon="18.090728866">
        <ele>26.8</ele>
        <time>2011-02-16T19:56:27Z</time>
      </trkpt>
      <trkpt lat="59.2246862762" lon="18.0907519162">
        <ele>26.8</ele>
        <time>2011-02-16T19:56:29Z</time>
      </trkpt>
      <trkpt lat="59.2247390822" lon="18.0907814205">
        <ele>26.8</ele>
        <time>2011-02-16T19:56:31Z</time>
      </trkpt>
      <trkpt lat="59.2247689218" lon="18.0908012018">
        <ele>26.8</ele>
        <time>2011-02-16T19:56:33Z</time>
      </trkpt>
      <trkpt lat="59.2248191294" lon="18.0908458773">
        <ele>26.8</ele>
        <time>2011-02-16T19:56:47Z</time>
      </trkpt>
      <trkpt lat="59.2248207219" lon="18.0908514094">
        <ele>27.8</ele>
        <time>2011-02-16T19:57:02Z</time>
        <extensions><gpxtpx:TrackPointExtension><gpxtpx:hr>126</gpxtpx:hr></gpxtpx:TrackPointExtension></extensions>
      </trkpt>
      <trkpt lat="59.2248199675" lon="18.0908512417">
        <ele>27.8</ele>
        <time>2011-02-16T19:57:03Z</time>
        <extensions><gpxtpx:TrackPointExtension><gpxtpx:hr>126</gpxtpx:hr></gpxtpx:TrackPointExtension></extensions>
      </trkpt>
      <trkpt lat="59.2248451971" lon="18.09085669">
        <ele>28.6</ele>
        <time>2011-02-16T19:57:12Z</time>
        <extensions><gpxtpx:TrackPointExtension><gpxtpx:hr>125</gpxtpx:hr></gpxtpx:TrackPointExtension></extensions>
      </trkpt>
      <trkpt lat="59.2249259148" lon="18.0909137707">
        <ele>28.6</ele>
        <time>2011-02-16T19:57:16Z</time>
        <extensions><gpxtpx:TrackPointExtension><gpxtpx:hr>124</gpxtpx:hr></gpxtpx:TrackPointExtension></extensions>
      </trkpt>
      <trkpt lat="59.2249807324" lon="18.0909538362">
        <ele>28.8</ele>
        <time>2011-02-16T19:57:18Z</time>
        <extensions><gpxtpx:TrackPointExtension><gpxtpx:hr>124</gpxtpx:hr></gpxtpx:TrackPointExtension></extensions>
      </trkpt>
      <trkpt lat="59.225011494" lon="18.0909565184">
        <ele>28.8</ele>
        <time>2011-02-16T19:57:19Z</time>
        <extensions><gpxtpx:TrackPointExtension><gpxtpx:hr>125</gpxtpx:hr></gpxtpx:TrackPointExtension></extensions>
      </trkpt>
      <trkpt lat="59.2250639647" lon="18.0909850169">
        <ele>28.8</ele>
        <time>2011-02-16T19:57:21Z</time>
        <extensions><gpxtpx:TrackPointExtension><gpxtpx:hr>127</gpxtpx:hr></gpxtpx:TrackPointExtension></extensions>
      </trkpt>
      <trkpt lat="59.2251295111" lon="18.0910068098">
        <ele>28.8</ele>
        <time>2011-02-16T19:57:23Z</time>
        <extensions><gpxtpx:TrackPointExtension><gpxtpx:hr>128</gpxtpx:hr></gpxtpx:TrackPointExtension></extensions>
      </trkpt>
      <trkpt lat="59.2251899446" lon="18.0910028703">
        <ele>28.8</ele>
        <time>2011-02-16T19:57:26Z</time>
        <extensions><gpxtpx:TrackPointExtension><gpxtpx:hr>130</gpxtpx:hr></gpxtpx:TrackPointExtension></extensions>
      </trkpt>
      <trkpt lat="59.2252517192" lon="18.0909944884">
        <ele>28.8</ele>
        <time>2011-02-16T19:57:27Z</time>
        <extensions><gpxtpx:TrackPointExtension><gpxtpx:hr>131</gpxtpx:hr></gpxtpx:TrackPointExtension></extensions>
      </trkpt>
      <trkpt lat="59.2253083809" lon="18.0909473821">
        <ele>28.8</ele>
        <time>2011-02-16T19:57:29Z</time>
        <extensions><gpxtpx:TrackPointExtension><gpxtpx:hr>130</gpxtpx:hr></gpxtpx:TrackPointExtension></extensions>
      </trkpt>
      <trkpt lat="59.2253595105" lon="18.0908560194">
        <ele>28.8</ele>
        <time>2011-02-16T19:57:31Z</time>
        <extensions><gpxtpx:TrackPointExtension><gpxtpx:hr>130</gpxtpx:hr></gpxtpx:TrackPointExtension></extensions>
      </trkpt>
      <trkpt lat="59.2254058624" lon="18.0907665007">
        <ele>29</ele>
        <time>2011-02-16T19:57:33Z</time>
        <extensions><gpxtpx:TrackPointExtension><gpxtpx:hr>130</gpxtpx:hr></gpxtpx:TrackPointExtension></extensions>
      </trkpt>
      <trkpt lat="59.2254209498" lon="18.0907021277">
        <ele>29</ele>
        <time>2011-02-16T19:57:34Z</time>
        <extensions><gpxtpx:TrackPointExtension><gpxtpx:hr>131</gpxtpx:hr></gpxtpx:TrackPointExtension></extensions>
      </trkpt>
      <trkpt lat="59.2254438324" lon="18.0905717054">
        <ele>29</ele>
        <time>2011-02-16T19:57:37Z</time>
        <extensions><gpxtpx:TrackPointExtension><gpxtpx:hr>131</gpxtpx:hr></gpxtpx:TrackPointExtension></extensions>
      </trkpt>
      <trkpt lat="59.2254507893" lon="18.0904538559">
        <ele>29</ele>
        <time>2011-02-16T19:57:39Z</time>
        <extensions><gpxtpx:TrackPointExtension><gpxtpx:hr>132</gpxtpx:hr></gpxtpx:TrackPointExtension></extensions>
      </trkpt>
      <trkpt lat="59.2254492806" lon="18.0903520158">
        <ele>29</ele>
        <time>2011-02-16T19:57:40Z</time>
        <extensions><gpxtpx:TrackPointExtension><gpxtpx:hr>134</gpxtpx:hr></gpxtpx:TrackPointExtension></extensions>
      </trkpt>
      <trkpt lat="59.225445844" lon="18.0902402012">
        <ele>29</ele>
        <time>2011-02-16T19:57:43Z</time>
        <extensions><gpxtpx:TrackPointExtension><gpxtpx:hr>137</gpxtpx:hr></gpxtpx:TrackPointExtension></extensions>
      </trkpt>
      <trkpt lat="59.2254473528" lon="18.0902166481">
        <ele>29</ele>
        <time>2011-02-16T19:57:44Z</time>
        <extensions><gpxtpx:TrackPointExtension><gpxtpx:hr>138</gpxtpx:hr></gpxtpx:TrackPointExtension></extensions>
      </trkpt>
      <trkpt lat="59.2254478557" lon="18.0901007264">
        <ele>29</ele>
        <time>2011-02-16T19:57:48Z</time>
        <extensions><gpxtpx:TrackPointExtension><gpxtpx:hr>141</gpxtpx:hr></gpxtpx:TrackPointExtension></extensions>
      </trkpt>
      <trkpt lat="59.2254560699" lon="18.0900200925">
        <ele>29</ele>
        <time>2011-02-16T19:57:50Z</time>
        <extensions><gpxtpx:TrackPointExtension><gpxtpx:hr>143</gpxtpx:hr></gpxtpx:TrackPointExtension></extensions>
      </trkpt>
      <trkpt lat="59.2254531363" lon="18.0898893349">
        <ele>29</ele>
        <time>2011-02-16T19:57:53Z</time>
        <extensions><gpxtpx:TrackPointExtension><gpxtpx:hr>145</gpxtpx:hr></gpxtpx:TrackPointExtension></extensions>
      </trkpt>
      <trkpt lat="59.2254639489" lon="18.0897959605">
        <ele>29</ele>
        <time>2011-02-16T19:57:56Z</time>
        <extensions><gpxtpx:TrackPointExtension><gpxtpx:hr>148</gpxtpx:hr></gpxtpx:TrackPointExtension></extensions>
      </trkpt>
      <trkpt lat="59.2254611829" lon="18.089686912">
        <ele>29</ele>
        <time>2011-02-16T19:57:59Z</time>
        <extensions><gpxtpx:TrackPointExtension><gpxtpx:hr>148</gpxtpx:hr></gpxtpx:TrackPointExtension></extensions>
      </trkpt>
      <trkpt lat="59.2254756836" lon="18.0895300028">
        <ele>29.2</ele>
        <time>2011-02-16T19:58:03Z</time>
        <extensions><gpxtpx:TrackPointExtension><gpxtpx:hr>149</gpxtpx:hr></gpxtpx:TrackPointExtension></extensions>
      </trkpt>
      <trkpt lat="59.2254867477" lon="18.0894593434">
        <ele>29.6</ele>
        <time>2011-02-16T19:58:06Z</time>
        <extensions><gpxtpx:TrackPointExtension><gpxtpx:hr>151</gpxtpx:hr></gpxtpx:TrackPointExtension></extensions>
      </trkpt>
      <trkpt lat="59.2255080377" lon="18.0893444276">
        <ele>30</ele>
        <time>2011-02-16T19:58:08Z</time>
        <extensions><gpxtpx:TrackPointExtension><gpxtpx:hr>152</gpxtpx:hr></gpxtpx:TrackPointExtension></extensions>
      </trkpt>
      <trkpt lat="59.225531507" lon="18.0892658892">
        <ele>30.2</ele>
        <time>2011-02-16T19:58:10Z</time>
        <extensions><gpxtpx:TrackPointExtension><gpxtpx:hr>152</gpxtpx:hr></gpxtpx:TrackPointExtension></extensions>
      </trkpt>
      <trkpt lat="59.2255592511" lon="18.0891555834">
        <ele>30.4</ele>
        <time>2011-02-16T19:58:14Z</time>
        <extensions><gpxtpx:TrackPointExtension><gpxtpx:hr>152</gpxtpx:hr></gpxtpx:TrackPointExtension></extensions>
      </trkpt>
      <trkpt lat="59.2255781942" lon="18.0890742789">
        <ele>30.6</ele>
        <time>2011-02-16T19:58:17Z</time>
        <extensions><gpxtpx:TrackPointExtension><gpxtpx:hr>153</gpxtpx:hr></gpxtpx:TrackPointExtension></extensions>
      </trkpt>
      <trkpt lat="59.2255902642" lon="18.0889767136">
        <ele>30.6</ele>
        <time>2011-02-16T19:58:18Z</time>
        <extensions><gpxtpx:TrackPointExtension><gpxtpx:hr>154</gpxtpx:hr></gpxtpx:TrackPointExtension></extensions>
      </trkpt>
      <trkpt lat="59.2256051001" lon="18.0888578583">
        <ele>31.4</ele>
        <time>2011-02-16T19:58:21Z</time>
        <extensions><gpxtpx:TrackPointExtension><gpxtpx:hr>154</gpxtpx:hr></gpxtpx:TrackPointExtension></extensions>
      </trkpt>
      <trkpt lat="59.2255999033" lon="18.0887178805">
        <ele>31.8</ele>
        <time>2011-02-16T19:58:24Z</time>
        <extensions><gpxtpx:TrackPointExtension><gpxtpx:hr>155</gpxtpx:hr></gpxtpx:TrackPointExtension></extensions>
      </trkpt>
      <trkpt lat="59.2255658728" lon="18.0886274398">
        <ele>32</ele>
        <time>2011-02-16T19:58:26Z</time>
        <extensions><gpxtpx:TrackPointExtension><gpxtpx:hr>156</gpxtpx:hr></gpxtpx:TrackPointExtension></extensions>
      </trkpt>
      <trkpt lat="59.2255413139" lon="18.0885737119">
        <ele>32.2</ele>
        <time>2011-02-16T19:58:27Z</time>
        <extensions><gpxtpx:TrackPointExtension><gpxtpx:hr>157</gpxtpx:hr></gpxtpx:TrackPointExtension></extensions>
      </trkpt>
      <trkpt lat="59.2254950458" lon="18.0884692734">
        <ele>32.4</ele>
        <time>2011-02-16T19:58:29Z</time>
        <extensions><gpxtpx:TrackPointExtension><gpxtpx:hr>158</gpxtpx:hr></gpxtpx:TrackPointExtension></extensions>
      </trkpt>
      <trkpt lat="59.2254463469" lon="18.0883708699">
        <ele>32.6</ele>
        <time>2011-02-16T19:58:32Z</time>
        <extensions><gpxtpx:TrackPointExtension><gpxtpx:hr>159</gpxtpx:hr></gpxtpx:TrackPointExtension></extensions>
      </trkpt>
      <trkpt lat="59.2254201954" lon="18.0882928344">
        <ele>32.6</ele>
        <time>2011-02-16T19:58:33Z</time>
        <extensions><gpxtpx:TrackPointExtension><gpxtpx:hr>161</gpxtpx:hr></gpxtpx:TrackPointExtension></extensions>
      </trkpt>
      <trkpt lat="59.2253905235" lon="18.0882404475">
        <ele>32.8</ele>
        <time>2011-02-16T19:58:34Z</time>
        <extensions><gpxtpx:TrackPointExtension><gpxtpx:hr>161</gpxtpx:hr></gpxtpx:TrackPointExtension></extensions>
      </trkpt>
      <trkpt lat="59.2253452612" lon="18.0881720512">
        <ele>33</ele>
        <time>2011-02-16T19:58:36Z</time>
        <extensions><gpxtpx:TrackPointExtension><gpxtpx:hr>162</gpxtpx:hr></gpxtpx:TrackPointExtension></extensions>
      </trkpt>
      <trkpt lat="59.2252781222" lon="18.0880973685">
        <ele>33.4</ele>
        <time>2011-02-16T19:58:38Z</time>
        <extensions><gpxtpx:TrackPointExtension><gpxtpx:hr>164</gpxtpx:hr></gpxtpx:TrackPointExtension></extensions>
      </trkpt>
      <trkpt lat="59.2252199518" lon="18.0879806924">
        <ele>33.8</ele>
        <time>2011-02-16T19:58:40Z</time>
        <extensions><gpxtpx:TrackPointExtension><gpxtpx:hr>165</gpxtpx:hr></gpxtpx:TrackPointExtension></extensions>
      </trkpt>
      <trkpt lat="59.225188855" lon="18.0879194208">
        <ele>34</ele>
        <time>2011-02-16T19:58:41Z</time>
        <extensions><gpxtpx:TrackPointExtension><gpxtpx:hr>165</gpxtpx:hr></gpxtpx:TrackPointExtension></extensions>
      </trkpt>
      <trkpt lat="59.2251192014" lon="18.087800314">
        <ele>34.2</ele>
        <time>2011-02-16T19:58:44Z</time>
        <extensions><gpxtpx:TrackPointExtension><gpxtpx:hr>166</gpxtpx:hr></gpxtpx:TrackPointExtension></extensions>
      </trkpt>
      <trkpt lat="59.225042507" lon="18.0876912654">
        <ele>34.4</ele>
        <time>2011-02-16T19:58:46Z</time>
        <extensions><gpxtpx:TrackPointExtension><gpxtpx:hr>166</gpxtpx:hr></gpxtpx:TrackPointExtension></extensions>
      </trkpt>
      <trkpt lat="59.2249560896" lon="18.0875771878">
        <ele>34.6</ele>
        <time>2011-02-16T19:58:47Z</time>
        <extensions><gpxtpx:TrackPointExtension><gpxtpx:hr>167</gpxtpx:hr></gpxtpx:TrackPointExtension></extensions>
      </trkpt>
      <trkpt lat="59.2248735279" lon="18.0874772755">
        <ele>34.8</ele>
        <time>2011-02-16T19:58:49Z</time>
        <extensions><gpxtpx:TrackPointExtension><gpxtpx:hr>167</gpxtpx:hr></gpxtpx:TrackPointExtension></extensions>
      </trkpt>
      <trkpt lat="59.2248017788" lon="18.0874103041">
        <ele>34.8</ele>
        <time>2011-02-16T19:58:51Z</time>
        <extensions><gpxtpx:TrackPointExtension><gpxtpx:hr>168</gpxtpx:hr></gpxtpx:TrackPointExtension></extensions>
      </trkpt>
      <trkpt lat="59.2247807403" lon="18.0873781177">
        <ele>34.8</ele>
        <time>2011-02-16T19:58:52Z</time>
        <extensions><gpxtpx:TrackPointExtension><gpxtpx:hr>168</gpxtpx:hr></gpxtpx:TrackPointExtension></extensions>
      </trkpt>
      <trkpt lat="59.2247239948" lon="18.0872576697">
        <ele>35</ele>
        <time>2011-02-16T19:58:54Z</time>
        <extensions><gpxtpx:TrackPointExtension><gpxtpx:hr>167</gpxtpx:hr></gpxtpx:TrackPointExtension></extensions>
      </trkpt>
      <trkpt lat="59.2245626432" lon="18.0871352102">
        <ele>35</ele>
        <time>2011-02-16T19:58:57Z</time>
        <extensions><gpxtpx:TrackPointExtension><gpxtpx:hr>167</gpxtpx:hr></gpxtpx:TrackPointExtension></extensions>
      </trkpt>
      <trkpt lat="59.2244960071" lon="18.0871184464">
        <ele>35</ele>
        <time>2011-02-16T19:58:59Z</time>
        <extensions><gpxtpx:TrackPointExtension><gpxtpx:hr>167</gpxtpx:hr></gpxtpx:TrackPointExtension></extensions>
      </trkpt>
      <trkpt lat="59.224389557" lon="18.0871125791">
        <ele>35.2</ele>
        <time>2011-02-16T19:59:01Z</time>
        <extensions><gpxtpx:TrackPointExtension><gpxtpx:hr>166</gpxtpx:hr></gpxtpx:TrackPointExtension></extensions>
      </trkpt>
      <trkpt lat="59.224292746" lon="18.0871375571">
        <ele>35.2</ele>
        <time>2011-02-16T19:59:02Z</time>
        <extensions><gpxtpx:TrackPointExtension><gpxtpx:hr>165</gpxtpx:hr></gpxtpx:TrackPointExtension></extensions>
      </trkpt>
      <trkpt lat="59.2242029759" lon="18.0871869265">
        <ele>35.2</ele>
        <time>2011-02-16T19:59:04Z</time>
        <extensions><gpxtpx:TrackPointExtension><gpxtpx:hr>164</gpxtpx:hr></gpxtpx:TrackPointExtension></extensions>
      </trkpt>
      <trkpt lat="59.2241137087" lon="18.0872611901">
        <ele>35.2</ele>
        <time>2011-02-16T19:59:07Z</time>
        <extensions><gpxtpx:TrackPointExtension><gpxtpx:hr>164</gpxtpx:hr></gpxtpx:TrackPointExtension></extensions>
      </trkpt>
      <trkpt lat="59.2239943504" lon="18.0874030957">
        <ele>35.2</ele>
        <time>2011-02-16T19:59:09Z</time>
        <extensions><gpxtpx:TrackPointExtension><gpxtpx:hr>163</gpxtpx:hr></gpxtpx:TrackPointExtension></extensions>
      </trkpt>
      <trkpt lat="59.2239012275" lon="18.0874962186">
        <ele>35.2</ele>
        <time>2011-02-16T19:59:12Z</time>
        <extensions><gpxtpx:TrackPointExtension><gpxtpx:hr>162</gpxtpx:hr></gpxtpx:TrackPointExtension></extensions>
      </trkpt>
      <trkpt lat="59.2238531992" lon="18.0875268964">
        <ele>35.2</ele>
        <time>2011-02-16T19:59:13Z</time>
        <extensions><gpxtpx:TrackPointExtension><gpxtpx:hr>162</gpxtpx:hr></gpxtpx:TrackPointExtension></extensions>
      </trkpt>
      <trkpt lat="59.2237458271" lon="18.0875636091">
        <ele>35</ele>
        <time>2011-02-16T19:59:15Z</time>
        <extensions><gpxtpx:TrackPointExtension><gpxtpx:hr>161</gpxtpx:hr></gpxtpx:TrackPointExtension></extensions>
      </trkpt>
      <trkpt lat="59.2236933564" lon="18.0875709014">
        <ele>34.8</ele>
        <time>2011-02-16T19:59:16Z</time>
        <extensions><gpxtpx:TrackPointExtension><gpxtpx:hr>161</gpxtpx:hr></gpxtpx:TrackPointExtension></extensions>
      </trkpt>
      <trkpt lat="59.2235950367" lon="18.0875304168">
        <ele>34.6</ele>
        <time>2011-02-16T19:59:18Z</time>
        <extensions><gpxtpx:TrackPointExtension><gpxtpx:hr>159</gpxtpx:hr></gpxtpx:TrackPointExtension></extensions>
      </trkpt>
      <trkpt lat="59.2235533786" lon="18.0874785328">
        <ele>34.4</ele>
        <time>2011-02-16T19:59:19Z</time>
        <extensions><gpxtpx:TrackPointExtension><gpxtpx:hr>159</gpxtpx:hr></gpxtpx:TrackPointExtension></extensions>
      </trkpt>
      <trkpt lat="59.2234710684" lon="18.0873941271">
        <ele>34.2</ele>
        <time>2011-02-16T19:59:21Z</time>
        <extensions><gpxtpx:TrackPointExtension><gpxtpx:hr>159</gpxtpx:hr></gpxtpx:TrackPointExtension></extensions>
      </trkpt>
      <trkpt lat="59.2233526321" lon="18.0873142476">
        <ele>34</ele>
        <time>2011-02-16T19:59:24Z</time>
        <extensions><gpxtpx:TrackPointExtension><gpxtpx:hr>158</gpxtpx:hr></gpxtpx:TrackPointExtension></extensions>
      </trkpt>
      <trkpt lat="59.2232746805" lon="18.0872522215">
        <ele>33.8</ele>
        <time>2011-02-16T19:59:26Z</time>
        <extensions><gpxtpx:TrackPointExtension><gpxtpx:hr>158</gpxtpx:hr></gpxtpx:TrackPointExtension></extensions>
      </trkpt>
      <trkpt lat="59.2231655481" lon="18.0872134133">
        <ele>33.2</ele>
        <time>2011-02-16T19:59:29Z</time>
        <extensions><gpxtpx:TrackPointExtension><gpxtpx:hr>157</gpxtpx:hr></gpxtpx:TrackPointExtension></extensions>
      </trkpt>
      <trkpt lat="59.2230737663" lon="18.0871348749">
        <ele>32.6</ele>
        <time>2011-02-16T19:59:31Z</time>
        <extensions><gpxtpx:TrackPointExtension><gpxtpx:hr>156</gpxtpx:hr></gpxtpx:TrackPointExtension></extensions>
      </trkpt>
      <trkpt lat="59.2230118241" lon="18.0870858408">
        <ele>32.4</ele>
        <time>2011-02-16T19:59:33Z</time>
        <extensions><gpxtpx:TrackPointExtension><gpxtpx:hr>154</gpxtpx:hr></gpxtpx:TrackPointExtension></extensions>
      </trkpt>
      <trkpt lat="59.2229575094" lon="18.0870152652">
        <ele>32.2</ele>
        <time>2011-02-16T19:59:36Z</time>
        <extensions><gpxtpx:TrackPointExtension><gpxtpx:hr>153</gpxtpx:hr></gpxtpx:TrackPointExtension></extensions>
      </trkpt>
      <trkpt lat="59.2229218863" lon="18.0869244892">
        <ele>32</ele>
        <time>2011-02-16T19:59:38Z</time>
        <extensions><gpxtpx:TrackPointExtension><gpxtpx:hr>151</gpxtpx:hr></gpxtpx:TrackPointExtension></extensions>
      </trkpt>
      <trkpt lat="59.2229078885" lon="18.0868125909">
        <ele>31.8</ele>
        <time>2011-02-16T19:59:39Z</time>
        <extensions><gpxtpx:TrackPointExtension><gpxtpx:hr>151</gpxtpx:hr></gpxtpx:TrackPointExtension></extensions>
      </trkpt>
      <trkpt lat="59.2229054578" lon="18.0867353936">
        <ele>31.8</ele>
        <time>2011-02-16T19:59:41Z</time>
        <extensions><gpxtpx:TrackPointExtension><gpxtpx:hr>150</gpxtpx:hr></gpxtpx:TrackPointExtension></extensions>
      </trkpt>
      <trkpt lat="59.2229552463" lon="18.0865276063">
        <ele>31.6</ele>
        <time>2011-02-16T19:59:44Z</time>
        <extensions><gpxtpx:TrackPointExtension><gpxtpx:hr>150</gpxtpx:hr></gpxtpx:TrackPointExtension></extensions>
      </trkpt>
      <trkpt lat="59.2230009276" lon="18.0864137801">
        <ele>31.4</ele>
        <time>2011-02-16T19:59:46Z</time>
        <extensions><gpxtpx:TrackPointExtension><gpxtpx:hr>150</gpxtpx:hr></gpxtpx:TrackPointExtension></extensions>
      </trkpt>
      <trkpt lat="59.2230438429" lon="18.0862973555">
        <ele>30.8</ele>
        <time>2011-02-16T19:59:47Z</time>
        <extensions><gpxtpx:TrackPointExtension><gpxtpx:hr>150</gpxtpx:hr></gpxtpx:TrackPointExtension></extensions>
      </trkpt>
      <trkpt lat="59.2230960622" lon="18.0861867144">
        <ele>30.6</ele>
        <time>2011-02-16T19:59:49Z</time>
        <extensions><gpxtpx:TrackPointExtension><gpxtpx:hr>149</gpxtpx:hr></gpxtpx:TrackPointExtension></extensions>
      </trkpt>
      <trkpt lat="59.2231235548" lon="18.08614799">
        <ele>30.4</ele>
        <time>2011-02-16T19:59:51Z</time>
        <extensions><gpxtpx:TrackPointExtension><gpxtpx:hr>149</gpxtpx:hr></gpxtpx:TrackPointExtension></extensions>
      </trkpt>
      <trkpt lat="59.2231808032" lon="18.086013712">
        <ele>30</ele>
        <time>2011-02-16T19:59:54Z</time>
        <extensions><gpxtpx:TrackPointExtension><gpxtpx:hr>148</gpxtpx:hr></gpxtpx:TrackPointExtension></extensions>
      </trkpt>
      <trkpt lat="59.223240147" lon="18.085895611">
        <ele>29.8</ele>
        <time>2011-02-16T19:59:56Z</time>
        <extensions><gpxtpx:TrackPointExtension><gpxtpx:hr>146</gpxtpx:hr></gpxtpx:TrackPointExtension></extensions>
      </trkpt>
      <trkpt lat="59.2232939588" lon="18.0857988001">
        <ele>29.6</ele>
        <time>2011-02-16T19:59:59Z</time>
        <extensions><gpxtpx:TrackPointExtension><gpxtpx:hr>145</gpxtpx:hr></gpxtpx:TrackPointExtension></extensions>
      </trkpt>
      <trkpt lat="59.2233015864" lon="18.0857506879">
        <ele>29.6</ele>
        <time>2011-02-16T20:00:01Z</time>
        <extensions><gpxtpx:TrackPointExtension><gpxtpx:hr>145</gpxtpx:hr></gpxtpx:TrackPointExtension></extensions>
      </trkpt>
      <trkpt lat="59.2233430768" lon="18.0856577327">
        <ele>29.4</ele>
        <time>2011-02-16T20:00:03Z</time>
        <extensions><gpxtpx:TrackPointExtension><gpxtpx:hr>144</gpxtpx:hr></gpxtpx:TrackPointExtension></extensions>
      </trkpt>
      <trkpt lat="59.2233691445" lon="18.0856180863">
        <ele>29.4</ele>
        <time>2011-02-16T20:00:04Z</time>
        <extensions><gpxtpx:TrackPointExtension><gpxtpx:hr>144</gpxtpx:hr></gpxtpx:TrackPointExtension></extensions>
      </trkpt>
      <trkpt lat="59.2234074498" lon="18.085548768">
        <ele>29.4</ele>
        <time>2011-02-16T20:00:07Z</time>
        <extensions><gpxtpx:TrackPointExtension><gpxtpx:hr>144</gpxtpx:hr></gpxtpx:TrackPointExtension></extensions>
      </trkpt>
      <trkpt lat="59.2234316735" lon="18.0855287352">
        <ele>29.2</ele>
        <time>2011-02-16T20:00:08Z</time>
        <extensions><gpxtpx:TrackPointExtension><gpxtpx:hr>144</gpxtpx:hr></gpxtpx:TrackPointExtension></extensions>
      </trkpt>
      <trkpt lat="59.2234999021" lon="18.0854103828">
        <ele>29.2</ele>
        <time>2011-02-16T20:00:12Z</time>
        <extensions><gpxtpx:TrackPointExtension><gpxtpx:hr>144</gpxtpx:hr></gpxtpx:TrackPointExtension></extensions>
      </trkpt>
      <trkpt lat="59.2235216951" lon="18.0853801241">
        <ele>29.2</ele>
        <time>2011-02-16T20:00:13Z</time>
        <extensions><gpxtpx:TrackPointExtension><gpxtpx:hr>145</gpxtpx:hr></gpxtpx:TrackPointExtension></extensions>
      </trkpt>
      <trkpt lat="59.2235398" lon="18.0853252227">
        <ele>29.2</ele>
        <time>2011-02-16T20:00:14Z</time>
        <extensions><gpxtpx:TrackPointExtension><gpxtpx:hr>145</gpxtpx:hr></gpxtpx:TrackPointExtension></extensions>
      </trkpt>
      <trkpt lat="59.2235946176" lon="18.0852402302">
        <ele>29.2</ele>
        <time>2011-02-16T20:00:15Z</time>
        <extensions><gpxtpx:TrackPointExtension><gpxtpx:hr>145</gpxtpx:hr></gpxtpx:TrackPointExtension></extensions>
      </trkpt>
      <trkpt lat="59.2236575657" lon="18.0851433355">
        <ele>29.2</ele>
        <time>2011-02-16T20:00:18Z</time>
        <extensions><gpxtpx:TrackPointExtension><gpxtpx:hr>145</gpxtpx:hr></gpxtpx:TrackPointExtension></extensions>
      </trkpt>
      <trkpt lat="59.2237223577" lon="18.0850651323">
        <ele>29.2</ele>
        <time>2011-02-16T20:00:19Z</time>
        <extensions><gpxtpx:TrackPointExtension><gpxtpx:hr>147</gpxtpx:hr></gpxtpx:TrackPointExtension></extensions>
      </trkpt>
      <trkpt lat="59.2237746608" lon="18.084949965">
        <ele>29.2</ele>
        <time>2011-02-16T20:00:21Z</time>
        <extensions><gpxtpx:TrackPointExtension><gpxtpx:hr>147</gpxtpx:hr></gpxtpx:TrackPointExtension></extensions>
      </trkpt>
      <trkpt lat="59.2238145586" lon="18.0847939779">
        <ele>29</ele>
        <time>2011-02-16T20:00:24Z</time>
        <extensions><gpxtpx:TrackPointExtension><gpxtpx:hr>148</gpxtpx:hr></gpxtpx:TrackPointExtension></extensions>
      </trkpt>
      <trkpt lat="59.2238263771" lon="18.0847078958">
        <ele>29</ele>
        <time>2011-02-16T20:00:26Z</time>
        <extensions><gpxtpx:TrackPointExtension><gpxtpx:hr>148</gpxtpx:hr></gpxtpx:TrackPointExtension></extensions>
      </trkpt>
      <trkpt lat="59.2238462422" lon="18.0846099114">
        <ele>29</ele>
        <time>2011-02-16T20:00:27Z</time>
        <extensions><gpxtpx:TrackPointExtension><gpxtpx:hr>147</gpxtpx:hr></gpxtpx:TrackPointExtension></extensions>
      </trkpt>
      <trkpt lat="59.2238733996" lon="18.0845093286">
        <ele>29</ele>
        <time>2011-02-16T20:00:29Z</time>
        <extensions><gpxtpx:TrackPointExtension><gpxtpx:hr>146</gpxtpx:hr></gpxtpx:TrackPointExtension></extensions>
      </trkpt>
      <trkpt lat="59.2239114534" lon="18.0843957538">
        <ele>29</ele>
        <time>2011-02-16T20:00:32Z</time>
        <extensions><gpxtpx:TrackPointExtension><gpxtpx:hr>146</gpxtpx:hr></gpxtpx:TrackPointExtension></extensions>
      </trkpt>
      <trkpt lat="59.2239448972" lon="18.0843122701">
        <ele>29</ele>
        <time>2011-02-16T20:00:33Z</time>
        <extensions><gpxtpx:TrackPointExtension><gpxtpx:hr>146</gpxtpx:hr></gpxtpx:TrackPointExtension></extensions>
      </trkpt>
      <trkpt lat="59.2239778381" lon="18.0842462207">
        <ele>29</ele>
        <time>2011-02-16T20:00:35Z</time>
        <extensions><gpxtpx:TrackPointExtension><gpxtpx:hr>146</gpxtpx:hr></gpxtpx:TrackPointExtension></extensions>
      </trkpt>
      <trkpt lat="59.2239972841" lon="18.0842364977">
        <ele>29</ele>
        <time>2011-02-16T20:00:37Z</time>
        <extensions><gpxtpx:TrackPointExtension><gpxtpx:hr>146</gpxtpx:hr></gpxtpx:TrackPointExtension></extensions>
      </trkpt>
      <trkpt lat="59.2240095216" lon="18.0842245954">
        <ele>29</ele>
        <time>2011-02-16T20:00:41Z</time>
        <extensions><gpxtpx:TrackPointExtension><gpxtpx:hr>144</gpxtpx:hr></gpxtpx:TrackPointExtension></extensions>
      </trkpt>
      <trkpt lat="59.2240064203" lon="18.0842323906">
        <ele>29</ele>
        <time>2011-02-16T20:00:47Z</time>
        <extensions><gpxtpx:TrackPointExtension><gpxtpx:hr>139</gpxtpx:hr></gpxtpx:TrackPointExtension></extensions>
      </trkpt>
      <trkpt lat="59.2240079291" lon="18.0842346537">
        <ele>29</ele>
        <time>2011-02-16T20:00:54Z</time>
        <extensions><gpxtpx:TrackPointExtension><gpxtpx:hr>134</gpxtpx:hr></gpxtpx:TrackPointExtension></extensions>
      </trkpt>
      <trkpt lat="59.2240057498" lon="18.0842283673">
        <ele>29</ele>
        <time>2011-02-16T20:01:02Z</time>
        <extensions><gpxtpx:TrackPointExtension><gpxtpx:hr>129</gpxtpx:hr></gpxtpx:TrackPointExtension></extensions>
      </trkpt>
      <trkpt lat="59.2240041572" lon="18.0842186443">
        <ele>29</ele>
        <time>2011-02-16T20:01:09Z</time>
        <extensions><gpxtpx:TrackPointExtension><gpxtpx:hr>124</gpxtpx:hr></gpxtpx:TrackPointExtension></extensions>
      </trkpt>
      <trkpt lat="59.2240502577" lon="18.0841774891">
        <ele>29</ele>
        <time>2011-02-16T20:01:24Z</time>
        <extensions><gpxtpx:TrackPointExtension><gpxtpx:hr>120</gpxtpx:hr></gpxtpx:TrackPointExtension></extensions>
      </trkpt>
      <trkpt lat="59.2241061649" lon="18.084129377">
        <ele>29</ele>
        <time>2011-02-16T20:01:27Z</time>
        <extensions><gpxtpx:TrackPointExtension><gpxtpx:hr>119</gpxtpx:hr></gpxtpx:TrackPointExtension></extensions>
      </trkpt>
      <trkpt lat="59.224146901" lon="18.0840615675">
        <ele>29</ele>
        <time>2011-02-16T20:01:31Z</time>
        <extensions><gpxtpx:TrackPointExtension><gpxtpx:hr>122</gpxtpx:hr></gpxtpx:TrackPointExtension></extensions>
      </trkpt>
      <trkpt lat="59.2241966056" lon="18.0839940932">
        <ele>29</ele>
        <time>2011-02-16T20:01:33Z</time>
        <extensions><gpxtpx:TrackPointExtension><gpxtpx:hr>124</gpxtpx:hr></gpxtpx:TrackPointExtension></extensions>
      </trkpt>
      <trkpt lat="59.224241365" lon="18.0839396108">
        <ele>29</ele>
        <time>2011-02-16T20:01:36Z</time>
        <extensions><gpxtpx:TrackPointExtension><gpxtpx:hr>124</gpxtpx:hr></gpxtpx:TrackPointExtension></extensions>
      </trkpt>
      <trkpt lat="59.2243023014" lon="18.083907089">
        <ele>29</ele>
        <time>2011-02-16T20:01:39Z</time>
        <extensions><gpxtpx:TrackPointExtension><gpxtpx:hr>123</gpxtpx:hr></gpxtpx:TrackPointExtension></extensions>
      </trkpt>
      <trkpt lat="59.2243570352" lon="18.0838930913">
        <ele>29</ele>
        <time>2011-02-16T20:01:40Z</time>
        <extensions><gpxtpx:TrackPointExtension><gpxtpx:hr>123</gpxtpx:hr></gpxtpx:TrackPointExtension></extensions>
      </trkpt>
      <trkpt lat="59.2244119367" lon="18.0838863019">
        <ele>29</ele>
        <time>2011-02-16T20:01:42Z</time>
        <extensions><gpxtpx:TrackPointExtension><gpxtpx:hr>122</gpxtpx:hr></gpxtpx:TrackPointExtension></extensions>
      </trkpt>
      <trkpt lat="59.22447061" lon="18.083878842">
        <ele>29</ele>
        <time>2011-02-16T20:01:44Z</time>
        <extensions><gpxtpx:TrackPointExtension><gpxtpx:hr>122</gpxtpx:hr></gpxtpx:TrackPointExtension></extensions>
      </trkpt>
      <trkpt lat="59.2245331389" lon="18.0838790097">
        <ele>29</ele>
        <time>2011-02-16T20:01:47Z</time>
        <extensions><gpxtpx:TrackPointExtension><gpxtpx:hr>121</gpxtpx:hr></gpxtpx:TrackPointExtension></extensions>
      </trkpt>
      <trkpt lat="59.2245965061" lon="18.0838717174">
        <ele>29</ele>
        <time>2011-02-16T20:01:49Z</time>
        <extensions><gpxtpx:TrackPointExtension><gpxtpx:hr>122</gpxtpx:hr></gpxtpx:TrackPointExtension></extensions>
      </trkpt>
      <trkpt lat="59.2246654891" lon="18.083851098">
        <ele>29</ele>
        <time>2011-02-16T20:01:51Z</time>
        <extensions><gpxtpx:TrackPointExtension><gpxtpx:hr>121</gpxtpx:hr></gpxtpx:TrackPointExtension></extensions>
      </trkpt>
      <trkpt lat="59.2247541696" lon="18.0838264552">
        <ele>29</ele>
        <time>2011-02-16T20:01:53Z</time>
        <extensions><gpxtpx:TrackPointExtension><gpxtpx:hr>121</gpxtpx:hr></gpxtpx:TrackPointExtension></extensions>
      </trkpt>
      <trkpt lat="59.2248606198" lon="18.0838132118">
        <ele>29</ele>
        <time>2011-02-16T20:01:54Z</time>
        <extensions><gpxtpx:TrackPointExtension><gpxtpx:hr>121</gpxtpx:hr></gpxtpx:TrackPointExtension></extensions>
      </trkpt>
      <trkpt lat="59.2249273397" lon="18.0838153072">
        <ele>29</ele>
        <time>2011-02-16T20:01:56Z</time>
        <extensions><gpxtpx:TrackPointExtension><gpxtpx:hr>122</gpxtpx:hr></gpxtpx:TrackPointExtension></extensions>
      </trkpt>
      <trkpt lat="59.225136971" lon="18.0839981165">
        <ele>29</ele>
        <time>2011-02-16T20:01:59Z</time>
        <extensions><gpxtpx:TrackPointExtension><gpxtpx:hr>122</gpxtpx:hr></gpxtpx:TrackPointExtension></extensions>
      </trkpt>
      <trkpt lat="59.2252179402" lon="18.0841367531">
        <ele>29</ele>
        <time>2011-02-16T20:02:02Z</time>
        <extensions><gpxtpx:TrackPointExtension><gpxtpx:hr>123</gpxtpx:hr></gpxtpx:TrackPointExtension></extensions>
      </trkpt>
      <trkpt lat="59.2253104763" lon="18.084315539">
        <ele>29</ele>
        <time>2011-02-16T20:02:04Z</time>
        <extensions><gpxtpx:TrackPointExtension><gpxtpx:hr>124</gpxtpx:hr></gpxtpx:TrackPointExtension></extensions>
      </trkpt>
      <trkpt lat="59.2253580017" lon="18.0843657466">
        <ele>28.8</ele>
        <time>2011-02-16T20:02:06Z</time>
        <extensions><gpxtpx:TrackPointExtension><gpxtpx:hr>125</gpxtpx:hr></gpxtpx:TrackPointExtension></extensions>
      </trkpt>
      <trkpt lat="59.2254133222" lon="18.0844815006">
        <ele>28.4</ele>
        <time>2011-02-16T20:02:08Z</time>
        <extensions><gpxtpx:TrackPointExtension><gpxtpx:hr>126</gpxtpx:hr></gpxtpx:TrackPointExtension></extensions>
      </trkpt>
      <trkpt lat="59.2254734205" lon="18.0845629727">
        <ele>28.2</ele>
        <time>2011-02-16T20:02:09Z</time>
        <extensions><gpxtpx:TrackPointExtension><gpxtpx:hr>128</gpxtpx:hr></gpxtpx:TrackPointExtension></extensions>
      </trkpt>
      <trkpt lat="59.2255415653" lon="18.0846541678">
        <ele>28</ele>
        <time>2011-02-16T20:02:12Z</time>
        <extensions><gpxtpx:TrackPointExtension><gpxtpx:hr>129</gpxtpx:hr></gpxtpx:TrackPointExtension></extensions>
      </trkpt>
      <trkpt lat="59.2255711534" lon="18.0846931436">
        <ele>27.8</ele>
        <time>2011-02-16T20:02:13Z</time>
        <extensions><gpxtpx:TrackPointExtension><gpxtpx:hr>130</gpxtpx:hr></gpxtpx:TrackPointExtension></extensions>
      </trkpt>
      <trkpt lat="59.2256615103" lon="18.0848134239">
        <ele>27.6</ele>
        <time>2011-02-16T20:02:15Z</time>
        <extensions><gpxtpx:TrackPointExtension><gpxtpx:hr>130</gpxtpx:hr></gpxtpx:TrackPointExtension></extensions>
      </trkpt>
      <trkpt lat="59.2257293199" lon="18.0848979973">
        <ele>27.4</ele>
        <time>2011-02-16T20:02:18Z</time>
        <extensions><gpxtpx:TrackPointExtension><gpxtpx:hr>131</gpxtpx:hr></gpxtpx:TrackPointExtension></extensions>
      </trkpt>
      <trkpt lat="59.2257920165" lon="18.0849632084">
        <ele>27.4</ele>
        <time>2011-02-16T20:02:20Z</time>
        <extensions><gpxtpx:TrackPointExtension><gpxtpx:hr>131</gpxtpx:hr></gpxtpx:TrackPointExtension></extensions>
      </trkpt>
      <trkpt lat="59.2258560542" lon="18.0850473627">
        <ele>27</ele>
        <time>2011-02-16T20:02:21Z</time>
        <extensions><gpxtpx:TrackPointExtension><gpxtpx:hr>132</gpxtpx:hr></gpxtpx:TrackPointExtension></extensions>
      </trkpt>
      <trkpt lat="59.2259270489" lon="18.0851290024">
        <ele>26.6</ele>
        <time>2011-02-16T20:02:24Z</time>
        <extensions><gpxtpx:TrackPointExtension><gpxtpx:hr>133</gpxtpx:hr></gpxtpx:TrackPointExtension></extensions>
      </trkpt>
      <trkpt lat="59.2259837944" lon="18.0852059483">
        <ele>26.4</ele>
        <time>2011-02-16T20:02:26Z</time>
        <extensions><gpxtpx:TrackPointExtension><gpxtpx:hr>135</gpxtpx:hr></gpxtpx:TrackPointExtension></extensions>
      </trkpt>
      <trkpt lat="59.2260329961" lon="18.0852887614">
        <ele>26</ele>
        <time>2011-02-16T20:02:27Z</time>
        <extensions><gpxtpx:TrackPointExtension><gpxtpx:hr>135</gpxtpx:hr></gpxtpx:TrackPointExtension></extensions>
      </trkpt>
      <trkpt lat="59.2260764982" lon="18.085396385">
        <ele>25.8</ele>
        <time>2011-02-16T20:02:29Z</time>
        <extensions><gpxtpx:TrackPointExtension><gpxtpx:hr>136</gpxtpx:hr></gpxtpx:TrackPointExtension></extensions>
      </trkpt>
      <trkpt lat="59.226117318" lon="18.085502919">
        <ele>25.6</ele>
        <time>2011-02-16T20:02:32Z</time>
        <extensions><gpxtpx:TrackPointExtension><gpxtpx:hr>137</gpxtpx:hr></gpxtpx:TrackPointExtension></extensions>
      </trkpt>
      <trkpt lat="59.2261502589" lon="18.0856094529">
        <ele>25.4</ele>
        <time>2011-02-16T20:02:33Z</time>
        <extensions><gpxtpx:TrackPointExtension><gpxtpx:hr>138</gpxtpx:hr></gpxtpx:TrackPointExtension></extensions>
      </trkpt>
      <trkpt lat="59.2261828645" lon="18.0857122988">
        <ele>25.4</ele>
        <time>2011-02-16T20:02:36Z</time>
        <extensions><gpxtpx:TrackPointExtension><gpxtpx:hr>138</gpxtpx:hr></gpxtpx:TrackPointExtension></extensions>
      </trkpt>
      <trkpt lat="59.2262158054" lon="18.0858219341">
        <ele>25.2</ele>
        <time>2011-02-16T20:02:38Z</time>
        <extensions><gpxtpx:TrackPointExtension><gpxtpx:hr>139</gpxtpx:hr></gpxtpx:TrackPointExtension></extensions>
      </trkpt>
      <trkpt lat="59.2262453096" lon="18.0859154761">
        <ele>25</ele>
        <time>2011-02-16T20:02:39Z</time>
        <extensions><gpxtpx:TrackPointExtension><gpxtpx:hr>139</gpxtpx:hr></gpxtpx:TrackPointExtension></extensions>
      </trkpt>
      <trkpt lat="59.2262811004" lon="18.0860398635">
        <ele>24.6</ele>
        <time>2011-02-16T20:02:42Z</time>
        <extensions><gpxtpx:TrackPointExtension><gpxtpx:hr>140</gpxtpx:hr></gpxtpx:TrackPointExtension></extensions>
      </trkpt>
      <trkpt lat="59.2263250215" lon="18.0861439667">
        <ele>24.2</ele>
        <time>2011-02-16T20:02:44Z</time>
        <extensions><gpxtpx:TrackPointExtension><gpxtpx:hr>140</gpxtpx:hr></gpxtpx:TrackPointExtension></extensions>
      </trkpt>
      <trkpt lat="59.2263556154" lon="18.086258212">
        <ele>24</ele>
        <time>2011-02-16T20:02:46Z</time>
        <extensions><gpxtpx:TrackPointExtension><gpxtpx:hr>141</gpxtpx:hr></gpxtpx:TrackPointExtension></extensions>
      </trkpt>
      <trkpt lat="59.2263805935" lon="18.0863664223">
        <ele>23.8</ele>
        <time>2011-02-16T20:02:48Z</time>
        <extensions><gpxtpx:TrackPointExtension><gpxtpx:hr>142</gpxtpx:hr></gpxtpx:TrackPointExtension></extensions>
      </trkpt>
      <trkpt lat="59.2264232574" lon="18.0864858644">
        <ele>23.6</ele>
        <time>2011-02-16T20:02:51Z</time>
        <extensions><gpxtpx:TrackPointExtension><gpxtpx:hr>143</gpxtpx:hr></gpxtpx:TrackPointExtension></extensions>
      </trkpt>
      <trkpt lat="59.22643407" lon="18.0865183024">
        <ele>23.4</ele>
        <time>2011-02-16T20:02:52Z</time>
        <extensions><gpxtpx:TrackPointExtension><gpxtpx:hr>144</gpxtpx:hr></gpxtpx:TrackPointExtension></extensions>
      </trkpt>
      <trkpt lat="59.2264802543" lon="18.0866503173">
        <ele>23.2</ele>
        <time>2011-02-16T20:02:56Z</time>
        <extensions><gpxtpx:TrackPointExtension><gpxtpx:hr>145</gpxtpx:hr></gpxtpx:TrackPointExtension></extensions>
      </trkpt>
      <trkpt lat="59.2264937492" lon="18.086737489">
        <ele>23.2</ele>
        <time>2011-02-16T20:02:57Z</time>
        <extensions><gpxtpx:TrackPointExtension><gpxtpx:hr>145</gpxtpx:hr></gpxtpx:TrackPointExtension></extensions>
      </trkpt>
      <trkpt lat="59.2265103453" lon="18.0868311149">
        <ele>23</ele>
        <time>2011-02-16T20:03:00Z</time>
        <extensions><gpxtpx:TrackPointExtension><gpxtpx:hr>145</gpxtpx:hr></gpxtpx:TrackPointExtension></extensions>
      </trkpt>
      <trkpt lat="59.2265254327" lon="18.0869449411">
        <ele>23</ele>
        <time>2011-02-16T20:03:02Z</time>
        <extensions><gpxtpx:TrackPointExtension><gpxtpx:hr>146</gpxtpx:hr></gpxtpx:TrackPointExtension></extensions>
      </trkpt>
      <trkpt lat="59.2265471419" lon="18.0870478708">
        <ele>23</ele>
        <time>2011-02-16T20:03:03Z</time>
        <extensions><gpxtpx:TrackPointExtension><gpxtpx:hr>146</gpxtpx:hr></gpxtpx:TrackPointExtension></extensions>
      </trkpt>
      <trkpt lat="59.2265590442" lon="18.0871785446">
        <ele>23</ele>
        <time>2011-02-16T20:03:06Z</time>
        <extensions><gpxtpx:TrackPointExtension><gpxtpx:hr>146</gpxtpx:hr></gpxtpx:TrackPointExtension></extensions>
      </trkpt>
      <trkpt lat="59.22657673" lon="18.0872821449">
        <ele>23</ele>
        <time>2011-02-16T20:03:08Z</time>
        <extensions><gpxtpx:TrackPointExtension><gpxtpx:hr>146</gpxtpx:hr></gpxtpx:TrackPointExtension></extensions>
      </trkpt>
      <trkpt lat="59.2265918174" lon="18.0874302531">
        <ele>23</ele>
        <time>2011-02-16T20:03:09Z</time>
        <extensions><gpxtpx:TrackPointExtension><gpxtpx:hr>146</gpxtpx:hr></gpxtpx:TrackPointExtension></extensions>
      </trkpt>
      <trkpt lat="59.2266032168" lon="18.087604848">
        <ele>23</ele>
        <time>2011-02-16T20:03:12Z</time>
        <extensions><gpxtpx:TrackPointExtension><gpxtpx:hr>146</gpxtpx:hr></gpxtpx:TrackPointExtension></extensions>
      </trkpt>
      <trkpt lat="59.2266120178" lon="18.0877636012">
        <ele>22.8</ele>
        <time>2011-02-16T20:03:14Z</time>
        <extensions><gpxtpx:TrackPointExtension><gpxtpx:hr>146</gpxtpx:hr></gpxtpx:TrackPointExtension></extensions>
      </trkpt>
      <trkpt lat="59.2266198129" lon="18.0879162356">
        <ele>22.8</ele>
        <time>2011-02-16T20:03:15Z</time>
        <extensions><gpxtpx:TrackPointExtension><gpxtpx:hr>145</gpxtpx:hr></gpxtpx:TrackPointExtension></extensions>
      </trkpt>
      <trkpt lat="59.2266294521" lon="18.0880889866">
        <ele>22.8</ele>
        <time>2011-02-16T20:03:18Z</time>
        <extensions><gpxtpx:TrackPointExtension><gpxtpx:hr>145</gpxtpx:hr></gpxtpx:TrackPointExtension></extensions>
      </trkpt>
      <trkpt lat="59.2266288654" lon="18.0881710454">
        <ele>22.8</ele>
        <time>2011-02-16T20:03:19Z</time>
        <extensions><gpxtpx:TrackPointExtension><gpxtpx:hr>144</gpxtpx:hr></gpxtpx:TrackPointExtension></extensions>
      </trkpt>
      <trkpt lat="59.2266416897" lon="18.0884010447">
        <ele>22.8</ele>
        <time>2011-02-16T20:03:21Z</time>
        <extensions><gpxtpx:TrackPointExtension><gpxtpx:hr>143</gpxtpx:hr></gpxtpx:TrackPointExtension></extensions>
      </trkpt>
      <trkpt lat="59.2266381693" lon="18.0885420283">
        <ele>22.8</ele>
        <time>2011-02-16T20:03:24Z</time>
        <extensions><gpxtpx:TrackPointExtension><gpxtpx:hr>142</gpxtpx:hr></gpxtpx:TrackPointExtension></extensions>
      </trkpt>
      <trkpt lat="59.2266571124" lon="18.0887110912">
        <ele>22.8</ele>
        <time>2011-02-16T20:03:26Z</time>
        <extensions><gpxtpx:TrackPointExtension><gpxtpx:hr>140</gpxtpx:hr></gpxtpx:TrackPointExtension></extensions>
      </trkpt>
      <trkpt lat="59.2266800788" lon="18.0888255041">
        <ele>22.8</ele>
        <time>2011-02-16T20:03:28Z</time>
        <extensions><gpxtpx:TrackPointExtension><gpxtpx:hr>139</gpxtpx:hr></gpxtpx:TrackPointExtension></extensions>
      </trkpt>
      <trkpt lat="59.2267162886" lon="18.0888955768">
        <ele>22.8</ele>
        <time>2011-02-16T20:03:30Z</time>
        <extensions><gpxtpx:TrackPointExtension><gpxtpx:hr>138</gpxtpx:hr></gpxtpx:TrackPointExtension></extensions>
      </trkpt>
      <trkpt lat="59.2267718606" lon="18.0889378216">
        <ele>22.8</ele>
        <time>2011-02-16T20:03:31Z</time>
        <extensions><gpxtpx:TrackPointExtension><gpxtpx:hr>137</gpxtpx:hr></gpxtpx:TrackPointExtension></extensions>
      </trkpt>
      <trkpt lat="59.2268580265" lon="18.088906138">
        <ele>22.8</ele>
        <time>2011-02-16T20:03:33Z</time>
        <extensions><gpxtpx:TrackPointExtension><gpxtpx:hr>136</gpxtpx:hr></gpxtpx:TrackPointExtension></extensions>
      </trkpt>
      <trkpt lat="59.2269211422" lon="18.0887452894">
        <ele>22.8</ele>
        <time>2011-02-16T20:03:37Z</time>
        <extensions><gpxtpx:TrackPointExtension><gpxtpx:hr>135</gpxtpx:hr></gpxtpx:TrackPointExtension></extensions>
      </trkpt>
      <trkpt lat="59.2269461203" lon="18.088614867">
        <ele>22.8</ele>
        <time>2011-02-16T20:03:39Z</time>
        <extensions><gpxtpx:TrackPointExtension><gpxtpx:hr>135</gpxtpx:hr></gpxtpx:TrackPointExtension></extensions>
      </trkpt>
      <trkpt lat="59.2269521553" lon="18.0884957602">
        <ele>22.8</ele>
        <time>2011-02-16T20:03:41Z</time>
        <extensions><gpxtpx:TrackPointExtension><gpxtpx:hr>135</gpxtpx:hr></gpxtpx:TrackPointExtension></extensions>
      </trkpt>
      <trkpt lat="59.2269517362" lon="18.0883639129">
        <ele>22.8</ele>
        <time>2011-02-16T20:03:43Z</time>
        <extensions><gpxtpx:TrackPointExtension><gpxtpx:hr>136</gpxtpx:hr></gpxtpx:TrackPointExtension></extensions>
      </trkpt>
      <trkpt lat="59.2269509818" lon="18.0882458958">
        <ele>22.8</ele>
        <time>2011-02-16T20:03:45Z</time>
        <extensions><gpxtpx:TrackPointExtension><gpxtpx:hr>136</gpxtpx:hr></gpxtpx:TrackPointExtension></extensions>
      </trkpt>
      <trkpt lat="59.226940253" lon="18.088121676">
        <ele>22.8</ele>
        <time>2011-02-16T20:03:47Z</time>
        <extensions><gpxtpx:TrackPointExtension><gpxtpx:hr>136</gpxtpx:hr></gpxtpx:TrackPointExtension></extensions>
      </trkpt>
      <trkpt lat="59.2269297756" lon="18.0880623321">
        <ele>22.8</ele>
        <time>2011-02-16T20:03:48Z</time>
        <extensions><gpxtpx:TrackPointExtension><gpxtpx:hr>136</gpxtpx:hr></gpxtpx:TrackPointExtension></extensions>
      </trkpt>
      <trkpt lat="59.2269336313" lon="18.087906345">
        <ele>22.4</ele>
        <time>2011-02-16T20:03:51Z</time>
        <extensions><gpxtpx:TrackPointExtension><gpxtpx:hr>136</gpxtpx:hr></gpxtpx:TrackPointExtension></extensions>
      </trkpt>
      <trkpt lat="59.226928183" lon="18.0878081929">
        <ele>22.2</ele>
        <time>2011-02-16T20:03:53Z</time>
        <extensions><gpxtpx:TrackPointExtension><gpxtpx:hr>137</gpxtpx:hr></gpxtpx:TrackPointExtension></extensions>
      </trkpt>
      <trkpt lat="59.2269298594" lon="18.0877518666">
        <ele>22</ele>
        <time>2011-02-16T20:03:54Z</time>
        <extensions><gpxtpx:TrackPointExtension><gpxtpx:hr>137</gpxtpx:hr></gpxtpx:TrackPointExtension></extensions>
      </trkpt>
      <trkpt lat="59.2269343018" lon="18.0876491045">
        <ele>21.8</ele>
        <time>2011-02-16T20:03:56Z</time>
        <extensions><gpxtpx:TrackPointExtension><gpxtpx:hr>138</gpxtpx:hr></gpxtpx:TrackPointExtension></extensions>
      </trkpt>
      <trkpt lat="59.2269174542" lon="18.0874921115">
        <ele>21.6</ele>
        <time>2011-02-16T20:03:59Z</time>
        <extensions><gpxtpx:TrackPointExtension><gpxtpx:hr>138</gpxtpx:hr></gpxtpx:TrackPointExtension></extensions>
      </trkpt>
      <trkpt lat="59.2269080665" lon="18.0873507927">
        <ele>21.4</ele>
        <time>2011-02-16T20:04:01Z</time>
        <extensions><gpxtpx:TrackPointExtension><gpxtpx:hr>139</gpxtpx:hr></gpxtpx:TrackPointExtension></extensions>
      </trkpt>
      <trkpt lat="59.2268990978" lon="18.0872230525">
        <ele>21.2</ele>
        <time>2011-02-16T20:04:03Z</time>
        <extensions><gpxtpx:TrackPointExtension><gpxtpx:hr>140</gpxtpx:hr></gpxtpx:TrackPointExtension></extensions>
      </trkpt>
      <trkpt lat="59.226892057" lon="18.0870946418">
        <ele>21.2</ele>
        <time>2011-02-16T20:04:05Z</time>
        <extensions><gpxtpx:TrackPointExtension><gpxtpx:hr>141</gpxtpx:hr></gpxtpx:TrackPointExtension></extensions>
      </trkpt>
      <trkpt lat="59.2268797357" lon="18.0869602799">
        <ele>21.2</ele>
        <time>2011-02-16T20:04:07Z</time>
        <extensions><gpxtpx:TrackPointExtension><gpxtpx:hr>141</gpxtpx:hr></gpxtpx:TrackPointExtension></extensions>
      </trkpt>
      <trkpt lat="59.2268517401" lon="18.0867868584">
        <ele>21</ele>
        <time>2011-02-16T20:04:09Z</time>
        <extensions><gpxtpx:TrackPointExtension><gpxtpx:hr>142</gpxtpx:hr></gpxtpx:TrackPointExtension></extensions>
      </trkpt>
      <trkpt lat="59.226810585" lon="18.0865802446">
        <ele>21</ele>
        <time>2011-02-16T20:04:13Z</time>
        <extensions><gpxtpx:TrackPointExtension><gpxtpx:hr>143</gpxtpx:hr></gpxtpx:TrackPointExtension></extensions>
      </trkpt>
      <trkpt lat="59.2267749619" lon="18.0864723695">
        <ele>21</ele>
        <time>2011-02-16T20:04:15Z</time>
        <extensions><gpxtpx:TrackPointExtension><gpxtpx:hr>144</gpxtpx:hr></gpxtpx:TrackPointExtension></extensions>
      </trkpt>
      <trkpt lat="59.2267381654" lon="18.0863473116">
        <ele>21</ele>
        <time>2011-02-16T20:04:17Z</time>
        <extensions><gpxtpx:TrackPointExtension><gpxtpx:hr>145</gpxtpx:hr></gpxtpx:TrackPointExtension></extensions>
      </trkpt>
      <trkpt lat="59.2267011174" lon="18.0862471479">
        <ele>21</ele>
        <time>2011-02-16T20:04:19Z</time>
        <extensions><gpxtpx:TrackPointExtension><gpxtpx:hr>146</gpxtpx:hr></gpxtpx:TrackPointExtension></extensions>
      </trkpt>
      <trkpt lat="59.2266643208" lon="18.0861447211">
        <ele>20.8</ele>
        <time>2011-02-16T20:04:21Z</time>
        <extensions><gpxtpx:TrackPointExtension><gpxtpx:hr>147</gpxtpx:hr></gpxtpx:TrackPointExtension></extensions>
      </trkpt>
      <trkpt lat="59.2266280272" lon="18.0860522687">
        <ele>20.8</ele>
        <time>2011-02-16T20:04:23Z</time>
        <extensions><gpxtpx:TrackPointExtension><gpxtpx:hr>148</gpxtpx:hr></gpxtpx:TrackPointExtension></extensions>
      </trkpt>
      <trkpt lat="59.2266023786" lon="18.0860165618">
        <ele>20.8</ele>
        <time>2011-02-16T20:04:24Z</time>
        <extensions><gpxtpx:TrackPointExtension><gpxtpx:hr>148</gpxtpx:hr></gpxtpx:TrackPointExtension></extensions>
      </trkpt>
      <trkpt lat="59.2265611396" lon="18.0859306473">
        <ele>20.8</ele>
        <time>2011-02-16T20:04:26Z</time>
        <extensions><gpxtpx:TrackPointExtension><gpxtpx:hr>149</gpxtpx:hr></gpxtpx:TrackPointExtension></extensions>
      </trkpt>
      <trkpt lat="59.2264293762" lon="18.0856782683">
        <ele>20.8</ele>
        <time>2011-02-16T20:04:32Z</time>
        <extensions><gpxtpx:TrackPointExtension><gpxtpx:hr>149</gpxtpx:hr></gpxtpx:TrackPointExtension></extensions>
      </trkpt>
      <trkpt lat="59.2263841977" lon="18.0856045914">
        <ele>20.8</ele>
        <time>2011-02-16T20:04:34Z</time>
        <extensions><gpxtpx:TrackPointExtension><gpxtpx:hr>150</gpxtpx:hr></gpxtpx:TrackPointExtension></extensions>
      </trkpt>
      <trkpt lat="59.22634145" lon="18.0855123067">
        <ele>20.8</ele>
        <time>2011-02-16T20:04:36Z</time>
        <extensions><gpxtpx:TrackPointExtension><gpxtpx:hr>150</gpxtpx:hr></gpxtpx:TrackPointExtension></extensions>
      </trkpt>
      <trkpt lat="59.2262976127" lon="18.0854298288">
        <ele>20.8</ele>
        <time>2011-02-16T20:04:38Z</time>
        <extensions><gpxtpx:TrackPointExtension><gpxtpx:hr>150</gpxtpx:hr></gpxtpx:TrackPointExtension></extensions>
      </trkpt>
      <trkpt lat="59.226259056" lon="18.0853397234">
        <ele>20.8</ele>
        <time>2011-02-16T20:04:39Z</time>
        <extensions><gpxtpx:TrackPointExtension><gpxtpx:hr>151</gpxtpx:hr></gpxtpx:TrackPointExtension></extensions>
      </trkpt>
      <trkpt lat="59.2262198287" lon="18.0852509591">
        <ele>20.8</ele>
        <time>2011-02-16T20:04:42Z</time>
        <extensions><gpxtpx:TrackPointExtension><gpxtpx:hr>152</gpxtpx:hr></gpxtpx:TrackPointExtension></extensions>
      </trkpt>
      <trkpt lat="59.2261883965" lon="18.0851572494">
        <ele>20.8</ele>
        <time>2011-02-16T20:04:44Z</time>
        <extensions><gpxtpx:TrackPointExtension><gpxtpx:hr>153</gpxtpx:hr></gpxtpx:TrackPointExtension></extensions>
      </trkpt>
      <trkpt lat="59.2261354229" lon="18.0850745201">
        <ele>20.8</ele>
        <time>2011-02-16T20:04:46Z</time>
        <extensions><gpxtpx:TrackPointExtension><gpxtpx:hr>153</gpxtpx:hr></gpxtpx:TrackPointExtension></extensions>
      </trkpt>
      <trkpt lat="59.2260871432" lon="18.08500604">
        <ele>20.8</ele>
        <time>2011-02-16T20:04:48Z</time>
        <extensions><gpxtpx:TrackPointExtension><gpxtpx:hr>153</gpxtpx:hr></gpxtpx:TrackPointExtension></extensions>
      </trkpt>
      <trkpt lat="59.2260610755" lon="18.0849145096">
        <ele>20.8</ele>
        <time>2011-02-16T20:04:50Z</time>
        <extensions><gpxtpx:TrackPointExtension><gpxtpx:hr>153</gpxtpx:hr></gpxtpx:TrackPointExtension></extensions>
      </trkpt>
      <trkpt lat="59.2260513525" lon="18.0848249909">
        <ele>20.8</ele>
        <time>2011-02-16T20:04:52Z</time>
        <extensions><gpxtpx:TrackPointExtension><gpxtpx:hr>153</gpxtpx:hr></gpxtpx:TrackPointExtension></extensions>
      </trkpt>
      <trkpt lat="59.2260385282" lon="18.0846584426">
        <ele>21.2</ele>
        <time>2011-02-16T20:04:56Z</time>
        <extensions><gpxtpx:TrackPointExtension><gpxtpx:hr>153</gpxtpx:hr></gpxtpx:TrackPointExtension></extensions>
      </trkpt>
      <trkpt lat="59.2260185792" lon="18.0845435267">
        <ele>21.6</ele>
        <time>2011-02-16T20:04:59Z</time>
        <extensions><gpxtpx:TrackPointExtension><gpxtpx:hr>153</gpxtpx:hr></gpxtpx:TrackPointExtension></extensions>
      </trkpt>
      <trkpt lat="59.2260138016" lon="18.0844300358">
        <ele>22</ele>
        <time>2011-02-16T20:05:02Z</time>
        <extensions><gpxtpx:TrackPointExtension><gpxtpx:hr>152</gpxtpx:hr></gpxtpx:TrackPointExtension></extensions>
      </trkpt>
      <trkpt lat="59.2260013125" lon="18.0843444566">
        <ele>22.2</ele>
        <time>2011-02-16T20:05:04Z</time>
        <extensions><gpxtpx:TrackPointExtension><gpxtpx:hr>150</gpxtpx:hr></gpxtpx:TrackPointExtension></extensions>
      </trkpt>
      <trkpt lat="59.2259831238" lon="18.084239599">
        <ele>22.2</ele>
        <time>2011-02-16T20:05:06Z</time>
        <extensions><gpxtpx:TrackPointExtension><gpxtpx:hr>148</gpxtpx:hr></gpxtpx:TrackPointExtension></extensions>
      </trkpt>
      <trkpt lat="59.2259644322" lon="18.0841526787">
        <ele>22.4</ele>
        <time>2011-02-16T20:05:08Z</time>
        <extensions><gpxtpx:TrackPointExtension><gpxtpx:hr>147</gpxtpx:hr></gpxtpx:TrackPointExtension></extensions>
      </trkpt>
      <trkpt lat="59.2259470816" lon="18.084082606">
        <ele>22.4</ele>
        <time>2011-02-16T20:05:09Z</time>
        <extensions><gpxtpx:TrackPointExtension><gpxtpx:hr>147</gpxtpx:hr></gpxtpx:TrackPointExtension></extensions>
      </trkpt>
      <trkpt lat="59.2259008136" lon="18.0839740604">
        <ele>22.6</ele>
        <time>2011-02-16T20:05:13Z</time>
        <extensions><gpxtpx:TrackPointExtension><gpxtpx:hr>146</gpxtpx:hr></gpxtpx:TrackPointExtension></extensions>
      </trkpt>
      <trkpt lat="59.22586913" lon="18.0839031496">
        <ele>22.6</ele>
        <time>2011-02-16T20:05:15Z</time>
        <extensions><gpxtpx:TrackPointExtension><gpxtpx:hr>145</gpxtpx:hr></gpxtpx:TrackPointExtension></extensions>
      </trkpt>
      <trkpt lat="59.225853372" lon="18.0838656825">
        <ele>22.6</ele>
        <time>2011-02-16T20:05:16Z</time>
        <extensions><gpxtpx:TrackPointExtension><gpxtpx:hr>144</gpxtpx:hr></gpxtpx:TrackPointExtension></extensions>
      </trkpt>
      <trkpt lat="59.2257988896" lon="18.0837481682">
        <ele>22.6</ele>
        <time>2011-02-16T20:05:20Z</time>
        <extensions><gpxtpx:TrackPointExtension><gpxtpx:hr>142</gpxtpx:hr></gpxtpx:TrackPointExtension></extensions>
      </trkpt>
      <trkpt lat="59.225748263" lon="18.0836697136">
        <ele>22.8</ele>
        <time>2011-02-16T20:05:23Z</time>
        <extensions><gpxtpx:TrackPointExtension><gpxtpx:hr>140</gpxtpx:hr></gpxtpx:TrackPointExtension></extensions>
      </trkpt>
      <trkpt lat="59.2256619294" lon="18.0835303226">
        <ele>22.8</ele>
        <time>2011-02-16T20:05:29Z</time>
        <extensions><gpxtpx:TrackPointExtension><gpxtpx:hr>139</gpxtpx:hr></gpxtpx:TrackPointExtension></extensions>
      </trkpt>
      <trkpt lat="59.2256117218" lon="18.0834722361">
        <ele>23.4</ele>
        <time>2011-02-16T20:05:32Z</time>
        <extensions><gpxtpx:TrackPointExtension><gpxtpx:hr>138</gpxtpx:hr></gpxtpx:TrackPointExtension></extensions>
      </trkpt>
      <trkpt lat="59.2255799544" lon="18.0834204359">
        <ele>23.8</ele>
        <time>2011-02-16T20:05:35Z</time>
        <extensions><gpxtpx:TrackPointExtension><gpxtpx:hr>136</gpxtpx:hr></gpxtpx:TrackPointExtension></extensions>
      </trkpt>
      <trkpt lat="59.2255779428" lon="18.0833962122">
        <ele>23.8</ele>
        <time>2011-02-16T20:05:36Z</time>
        <extensions><gpxtpx:TrackPointExtension><gpxtpx:hr>136</gpxtpx:hr></gpxtpx:TrackPointExtension></extensions>
      </trkpt>
      <trkpt lat="59.2255306688" lon="18.0833315878">
        <ele>24.2</ele>
        <time>2011-02-16T20:05:39Z</time>
        <extensions><gpxtpx:TrackPointExtension><gpxtpx:hr>136</gpxtpx:hr></gpxtpx:TrackPointExtension></extensions>
      </trkpt>
      <trkpt lat="59.2254869992" lon="18.0832690588">
        <ele>24.4</ele>
        <time>2011-02-16T20:05:42Z</time>
        <extensions><gpxtpx:TrackPointExtension><gpxtpx:hr>134</gpxtpx:hr></gpxtpx:TrackPointExtension></extensions>
      </trkpt>
      <trkpt lat="59.2254515437" lon="18.0832206953">
        <ele>24.4</ele>
        <time>2011-02-16T20:05:44Z</time>
        <extensions><gpxtpx:TrackPointExtension><gpxtpx:hr>135</gpxtpx:hr></gpxtpx:TrackPointExtension></extensions>
      </trkpt>
      <trkpt lat="59.2254113106" lon="18.0831695657">
        <ele>24.4</ele>
        <time>2011-02-16T20:05:46Z</time>
        <extensions><gpxtpx:TrackPointExtension><gpxtpx:hr>134</gpxtpx:hr></gpxtpx:TrackPointExtension></extensions>
      </trkpt>
      <trkpt lat="59.2253914455" lon="18.0831521313">
        <ele>24.6</ele>
        <time>2011-02-16T20:05:47Z</time>
        <extensions><gpxtpx:TrackPointExtension><gpxtpx:hr>134</gpxtpx:hr></gpxtpx:TrackPointExtension></extensions>
      </trkpt>
      <trkpt lat="59.2253098058" lon="18.0831000797">
        <ele>24.6</ele>
        <time>2011-02-16T20:05:51Z</time>
        <extensions><gpxtpx:TrackPointExtension><gpxtpx:hr>133</gpxtpx:hr></gpxtpx:TrackPointExtension></extensions>
      </trkpt>
      <trkpt lat="59.2252549882" lon="18.0831006664">
        <ele>24.6</ele>
        <time>2011-02-16T20:05:53Z</time>
        <extensions><gpxtpx:TrackPointExtension><gpxtpx:hr>132</gpxtpx:hr></gpxtpx:TrackPointExtension></extensions>
      </trkpt>
      <trkpt lat="59.225211989" lon="18.0831103894">
        <ele>24.8</ele>
        <time>2011-02-16T20:05:57Z</time>
        <extensions><gpxtpx:TrackPointExtension><gpxtpx:hr>130</gpxtpx:hr></gpxtpx:TrackPointExtension></extensions>
      </trkpt>
      <trkpt lat="59.2251799702" lon="18.0831167597">
        <ele>24.8</ele>
        <time>2011-02-16T20:05:59Z</time>
        <extensions><gpxtpx:TrackPointExtension><gpxtpx:hr>129</gpxtpx:hr></gpxtpx:TrackPointExtension></extensions>
      </trkpt>
      <trkpt lat="59.2251136693" lon="18.0831503711">
        <ele>24.8</ele>
        <time>2011-02-16T20:06:03Z</time>
        <extensions><gpxtpx:TrackPointExtension><gpxtpx:hr>127</gpxtpx:hr></gpxtpx:TrackPointExtension></extensions>
      </trkpt>
      <trkpt lat="59.2251031081" lon="18.0831502035">
        <ele>24.8</ele>
        <time>2011-02-16T20:06:08Z</time>
        <extensions><gpxtpx:TrackPointExtension><gpxtpx:hr>123</gpxtpx:hr></gpxtpx:TrackPointExtension></extensions>
      </trkpt>
      <trkpt lat="59.2251065447" lon="18.0831455096">
        <ele>24.8</ele>
        <time>2011-02-16T20:06:21Z</time>
        <extensions><gpxtpx:TrackPointExtension><gpxtpx:hr>117</gpxtpx:hr></gpxtpx:TrackPointExtension></extensions>
      </trkpt>
      <trkpt lat="59.2251057903" lon="18.0831465154">
        <ele>24.8</ele>
        <time>2011-02-16T20:06:30Z</time>
        <extensions><gpxtpx:TrackPointExtension><gpxtpx:hr>111</gpxtpx:hr></gpxtpx:TrackPointExtension></extensions>
      </trkpt>
      <trkpt lat="59.2251060418" lon="18.0831465993">
        <ele>24.8</ele>
        <time>2011-02-16T20:06:31Z</time>
        <extensions><gpxtpx:TrackPointExtension><gpxtpx:hr>104</gpxtpx:hr></gpxtpx:TrackPointExtension></extensions>
      </trkpt>
      <trkpt lat="59.2251060418" lon="18.0831427436">
        <ele>24.8</ele>
        <time>2011-02-16T20:06:42Z</time>
        <extensions><gpxtpx:TrackPointExtension><gpxtpx:hr>109</gpxtpx:hr></gpxtpx:TrackPointExtension></extensions>
      </trkpt>
      <trkpt lat="59.2251146752" lon="18.0831311766">
        <ele>24.8</ele>
        <time>2011-02-16T20:06:55Z</time>
        <extensions><gpxtpx:TrackPointExtension><gpxtpx:hr>112</gpxtpx:hr></gpxtpx:TrackPointExtension></extensions>
      </trkpt>
    </trkseg>
  </trk>
</gpx>